AFR1A KDEN-LFPG
Flight info
| Callsign | AFR1A |
|---|---|
| Flight time | 9h 5m |
| Altitude | 35000 |
| Route | CHUWY1 CHUWY DCT KP81A DCT KP90C DCT TADIS/N0488F370 DCT 5430N08000W 57N070W DCT KLIPS DCT IRBIM/M083F370 DCT TOXIT DCT 60N050W 61N040W 61N030W 5930N02000W DCT AGORI/N0483F370 DCT OSBOX DCT LUTOV DCT NIPIT DCT ULTAG DCT DUB DCT KLY DCT MORAG DCT NUCHU L18 MID/N0473F290 Y803 SFD UM605 BIBAX |
| Aircraft | A346/H-SDE2E3FGHIJ3J4J5M1RWXY/LB1D1 |
Departure
| Time | 2026-05-08 11:05 |
|---|---|
| Airport | Denver International Airport (KDEN) |
Arrival
| Time | 2026-05-08 20:11 |
|---|---|
| Airport | Charles de Gaulle International Airport (LFPG) |
| Time | Latitude | Longitude | Altitude | Speed | Heading |
|---|---|---|---|---|---|
| 2026-05-08 10:22 | 39.85797 | -104.67282 | 5411 ft | 0 kts | 1° |
| 2026-05-08 10:47 | 39.85796 | -104.67283 | 5410 ft | 1 kts | 1° |
| 2026-05-08 10:47 | 39.85781 | -104.67283 | 5410 ft | 2 kts | 0° |
| 2026-05-08 10:48 | 39.85766 | -104.67283 | 5411 ft | 2 kts | 1° |
| 2026-05-08 10:48 | 39.85751 | -104.67287 | 5410 ft | 2 kts | 28° |
| 2026-05-08 10:48 | 39.85739 | -104.67299 | 5410 ft | 2 kts | 51° |
| 2026-05-08 10:48 | 39.85732 | -104.67316 | 5409 ft | 2 kts | 73° |
| 2026-05-08 10:49 | 39.85730 | -104.67330 | 5408 ft | 0 kts | 90° |
| 2026-05-08 10:49 | 39.85730 | -104.67336 | 5408 ft | 0 kts | 91° |
| 2026-05-08 10:52 | 39.85730 | -104.67337 | 5408 ft | 0 kts | 91° |
| 2026-05-08 10:52 | 39.85730 | -104.67339 | 5408 ft | 0 kts | 91° |
| 2026-05-08 10:53 | 39.85730 | -104.67336 | 5408 ft | 1 kts | 91° |
| 2026-05-08 10:53 | 39.85730 | -104.67293 | 5410 ft | 4 kts | 89° |
| 2026-05-08 10:53 | 39.85730 | -104.67247 | 5412 ft | 6 kts | 89° |
| 2026-05-08 10:54 | 39.85730 | -104.67197 | 5415 ft | 4 kts | 90° |
| 2026-05-08 10:54 | 39.85730 | -104.67153 | 5416 ft | 6 kts | 90° |
| 2026-05-08 10:54 | 39.85730 | -104.67072 | 5420 ft | 9 kts | 90° |
| 2026-05-08 10:54 | 39.85729 | -104.66984 | 5423 ft | 12 kts | 90° |
| 2026-05-08 10:55 | 39.85725 | -104.66883 | 5426 ft | 10 kts | 98° |
| 2026-05-08 10:55 | 39.85717 | -104.66794 | 5427 ft | 9 kts | 93° |
| 2026-05-08 10:55 | 39.85714 | -104.66708 | 5429 ft | 9 kts | 90° |
| 2026-05-08 10:55 | 39.85714 | -104.66626 | 5430 ft | 9 kts | 90° |
| 2026-05-08 10:56 | 39.85714 | -104.66556 | 5431 ft | 4 kts | 90° |
| 2026-05-08 10:56 | 39.85704 | -104.66522 | 5431 ft | 5 kts | 116° |
| 2026-05-08 10:56 | 39.85686 | -104.66473 | 5431 ft | 6 kts | 115° |
| 2026-05-08 10:56 | 39.85678 | -104.66412 | 5431 ft | 7 kts | 86° |
| 2026-05-08 10:57 | 39.85706 | -104.66363 | 5430 ft | 7 kts | 13° |
| 2026-05-08 10:57 | 39.85760 | -104.66351 | 5430 ft | 8 kts | 6° |
| 2026-05-08 10:57 | 39.85903 | -104.66348 | 5430 ft | 14 kts | 360° |
| 2026-05-08 10:58 | 39.86005 | -104.66347 | 5429 ft | 11 kts | 1° |
| 2026-05-08 10:58 | 39.86068 | -104.66341 | 5428 ft | 7 kts | 19° |
| 2026-05-08 10:58 | 39.86101 | -104.66282 | 5427 ft | 10 kts | 79° |
| 2026-05-08 10:58 | 39.86105 | -104.66181 | 5426 ft | 12 kts | 89° |
| 2026-05-08 10:59 | 39.86100 | -104.66068 | 5422 ft | 11 kts | 110° |
| 2026-05-08 10:59 | 39.86052 | -104.66026 | 5421 ft | 6 kts | 169° |
| 2026-05-08 10:59 | 39.85993 | -104.66019 | 5422 ft | 16 kts | 178° |
| 2026-05-08 10:59 | 39.85804 | -104.66019 | 5423 ft | 11 kts | 181° |
| 2026-05-08 11:00 | 39.85753 | -104.66020 | 5423 ft | 6 kts | 181° |
| 2026-05-08 11:00 | 39.85720 | -104.66021 | 5423 ft | 0 kts | 181° |
| 2026-05-08 11:01 | 39.85716 | -104.66022 | 5423 ft | 1 kts | 186° |
| 2026-05-08 11:01 | 39.85699 | -104.66033 | 5423 ft | 3 kts | 224° |
| 2026-05-08 11:01 | 39.85685 | -104.66074 | 5424 ft | 8 kts | 254° |
| 2026-05-08 11:01 | 39.85679 | -104.66152 | 5427 ft | 7 kts | 274° |
| 2026-05-08 11:02 | 39.85696 | -104.66209 | 5428 ft | 5 kts | 315° |
| 2026-05-08 11:02 | 39.85795 | -104.66232 | 5429 ft | 9 kts | 359° |
| 2026-05-08 11:02 | 39.85876 | -104.66233 | 5428 ft | 16 kts | 0° |
| 2026-05-08 11:03 | 39.85984 | -104.66232 | 5428 ft | 15 kts | 0° |
| 2026-05-08 11:03 | 39.86072 | -104.66218 | 5427 ft | 11 kts | 26° |
| 2026-05-08 11:03 | 39.86103 | -104.66118 | 5424 ft | 14 kts | 89° |
| 2026-05-08 11:03 | 39.86071 | -104.66035 | 5421 ft | 9 kts | 152° |
| 2026-05-08 11:04 | 39.85956 | -104.66017 | 5422 ft | 39 kts | 179° |
| 2026-05-08 11:04 | 39.85451 | -104.66023 | 5421 ft | 103 kts | 180° |
| 2026-05-08 11:04 | 39.84550 | -104.66035 | 5412 ft | 156 kts | 180° |
| 2026-05-08 11:04 | 39.83315 | -104.66049 | 5468 ft | 192 kts | 178° |
| 2026-05-08 11:05 | 39.81983 | -104.66041 | 5903 ft | 193 kts | 181° |
| 2026-05-08 11:05 | 39.80632 | -104.66086 | 6346 ft | 197 kts | 181° |
| 2026-05-08 11:05 | 39.79282 | -104.66123 | 6926 ft | 197 kts | 181° |
| 2026-05-08 11:05 | 39.77847 | -104.66159 | 7168 ft | 213 kts | 181° |
| 2026-05-08 11:06 | 39.76316 | -104.66190 | 7414 ft | 228 kts | 181° |
| 2026-05-08 11:06 | 39.74675 | -104.66200 | 7696 ft | 243 kts | 181° |
| 2026-05-08 11:06 | 39.72924 | -104.66200 | 7985 ft | 258 kts | 181° |
| 2026-05-08 11:06 | 39.71781 | -104.66198 | 8165 ft | 268 kts | 181° |
| 2026-05-08 11:07 | 39.69847 | -104.66188 | 8463 ft | 283 kts | 181° |
| 2026-05-08 11:07 | 39.67837 | -104.66170 | 8909 ft | 292 kts | 181° |
| 2026-05-08 11:07 | 39.65799 | -104.66141 | 9481 ft | 296 kts | 181° |
| 2026-05-08 11:07 | 39.63740 | -104.66092 | 10042 ft | 300 kts | 181° |
| 2026-05-08 11:08 | 39.61610 | -104.66026 | 10444 ft | 311 kts | 181° |
| 2026-05-08 11:08 | 39.59383 | -104.65942 | 10719 ft | 326 kts | 181° |
| 2026-05-08 11:08 | 39.58040 | -104.65891 | 10880 ft | 335 kts | 180° |
| 2026-05-08 11:08 | 39.55709 | -104.65803 | 11143 ft | 350 kts | 181° |
| 2026-05-08 11:09 | 39.53230 | -104.65707 | 11415 ft | 366 kts | 181° |
| 2026-05-08 11:09 | 39.50603 | -104.65599 | 11687 ft | 381 kts | 181° |
| 2026-05-08 11:09 | 39.47916 | -104.65493 | 11984 ft | 395 kts | 180° |
| 2026-05-08 11:09 | 39.46357 | -104.65433 | 12234 ft | 400 kts | 181° |
| 2026-05-08 11:10 | 39.43579 | -104.65324 | 12753 ft | 406 kts | 181° |
| 2026-05-08 11:10 | 39.40733 | -104.65202 | 13341 ft | 410 kts | 181° |
| 2026-05-08 11:10 | 39.37857 | -104.65054 | 13931 ft | 415 kts | 180° |
| 2026-05-08 11:10 | 39.34946 | -104.64877 | 14476 ft | 420 kts | 178° |
| 2026-05-08 11:11 | 39.32088 | -104.63959 | 14973 ft | 431 kts | 155° |
| 2026-05-08 11:11 | 39.30543 | -104.62743 | 15324 ft | 433 kts | 141° |
| 2026-05-08 11:11 | 39.28576 | -104.59879 | 15908 ft | 433 kts | 118° |
| 2026-05-08 11:11 | 39.27703 | -104.57222 | 16317 ft | 431 kts | 101° |
| 2026-05-08 11:12 | 39.27483 | -104.53565 | 16801 ft | 425 kts | 78° |
| 2026-05-08 11:12 | 39.28349 | -104.49975 | 17284 ft | 416 kts | 55° |
| 2026-05-08 11:12 | 39.30121 | -104.47103 | 17762 ft | 408 kts | 37° |
| 2026-05-08 11:12 | 39.32422 | -104.45086 | 18246 ft | 402 kts | 20° |
| 2026-05-08 11:13 | 39.35070 | -104.44036 | 18755 ft | 395 kts | 3° |
| 2026-05-08 11:13 | 39.37802 | -104.43702 | 19324 ft | 395 kts | 0° |
| 2026-05-08 11:13 | 39.40542 | -104.43343 | 19846 ft | 399 kts | 1° |
| 2026-05-08 11:13 | 39.43306 | -104.42946 | 20395 ft | 401 kts | 1° |
| 2026-05-08 11:14 | 39.46090 | -104.42518 | 20953 ft | 403 kts | 2° |
| 2026-05-08 11:14 | 39.48872 | -104.42081 | 21436 ft | 406 kts | 2° |
| 2026-05-08 11:14 | 39.51680 | -104.41631 | 21931 ft | 408 kts | 1° |
| 2026-05-08 11:14 | 39.54491 | -104.41172 | 22447 ft | 410 kts | 1° |
| 2026-05-08 11:15 | 39.57326 | -104.40707 | 22974 ft | 412 kts | 1° |
| 2026-05-08 11:15 | 39.60182 | -104.40237 | 23430 ft | 415 kts | 1° |
| 2026-05-08 11:15 | 39.62477 | -104.39856 | 23825 ft | 416 kts | 1° |
| 2026-05-08 11:15 | 39.65350 | -104.39381 | 24288 ft | 418 kts | 1° |
| 2026-05-08 11:16 | 39.68227 | -104.38905 | 24744 ft | 419 kts | 1° |
| 2026-05-08 11:16 | 39.71117 | -104.38427 | 25247 ft | 420 kts | 2° |
| 2026-05-08 11:16 | 39.74030 | -104.37941 | 25686 ft | 421 kts | 1° |
| 2026-05-08 11:16 | 39.76918 | -104.37460 | 26109 ft | 423 kts | 1° |
| 2026-05-08 11:17 | 39.79827 | -104.36971 | 26537 ft | 424 kts | 1° |
| 2026-05-08 11:17 | 39.82777 | -104.36482 | 26926 ft | 426 kts | 1° |
| 2026-05-08 11:17 | 39.85709 | -104.35992 | 27318 ft | 427 kts | 1° |
| 2026-05-08 11:17 | 39.88677 | -104.35497 | 27732 ft | 428 kts | 1° |
| 2026-05-08 11:18 | 39.91630 | -104.34999 | 28107 ft | 430 kts | 1° |
| 2026-05-08 11:18 | 39.94656 | -104.34481 | 28431 ft | 432 kts | 2° |
| 2026-05-08 11:18 | 39.97678 | -104.33960 | 28882 ft | 431 kts | 2° |
| 2026-05-08 11:18 | 40.00658 | -104.33378 | 29505 ft | 429 kts | 7° |
| 2026-05-08 11:19 | 40.03493 | -104.31963 | 29993 ft | 441 kts | 21° |
| 2026-05-08 11:19 | 40.06103 | -104.29823 | 30470 ft | 444 kts | 25° |
| 2026-05-08 11:19 | 40.08689 | -104.27602 | 30972 ft | 441 kts | 24° |
| 2026-05-08 11:19 | 40.11232 | -104.25429 | 31469 ft | 437 kts | 24° |
| 2026-05-08 11:20 | 40.13797 | -104.23256 | 32049 ft | 432 kts | 24° |
| 2026-05-08 11:20 | 40.16322 | -104.21129 | 32603 ft | 428 kts | 24° |
| 2026-05-08 11:20 | 40.18799 | -104.19040 | 33075 ft | 425 kts | 24° |
| 2026-05-08 11:20 | 40.21279 | -104.16956 | 33461 ft | 423 kts | 24° |
| 2026-05-08 11:21 | 40.23766 | -104.14864 | 33832 ft | 422 kts | 23° |
| 2026-05-08 11:21 | 40.26227 | -104.12792 | 34106 ft | 423 kts | 23° |
| 2026-05-08 11:21 | 40.28727 | -104.10689 | 34321 ft | 424 kts | 23° |
| 2026-05-08 11:21 | 40.31203 | -104.08610 | 34549 ft | 424 kts | 24° |
| 2026-05-08 11:22 | 40.33687 | -104.06513 | 34770 ft | 425 kts | 24° |
| 2026-05-08 11:22 | 40.36199 | -104.04398 | 34923 ft | 427 kts | 24° |
| 2026-05-08 11:22 | 40.38671 | -104.02309 | 35009 ft | 428 kts | 24° |
| 2026-05-08 11:23 | 40.43685 | -103.98064 | 35021 ft | 429 kts | 24° |
| 2026-05-08 11:23 | 40.48742 | -103.93769 | 35024 ft | 432 kts | 24° |
| 2026-05-08 11:24 | 40.53793 | -103.89481 | 35023 ft | 433 kts | 24° |
| 2026-05-08 11:24 | 40.58870 | -103.85155 | 35028 ft | 432 kts | 24° |
| 2026-05-08 11:25 | 40.63948 | -103.80823 | 35029 ft | 433 kts | 24° |
| 2026-05-08 11:25 | 40.68985 | -103.76521 | 35028 ft | 436 kts | 24° |
| 2026-05-08 11:26 | 40.74067 | -103.72171 | 35023 ft | 438 kts | 24° |
| 2026-05-08 11:26 | 40.79184 | -103.67786 | 35024 ft | 438 kts | 24° |
| 2026-05-08 11:27 | 40.84306 | -103.63383 | 35027 ft | 438 kts | 24° |
| 2026-05-08 11:27 | 40.89396 | -103.59005 | 35023 ft | 439 kts | 24° |
| 2026-05-08 11:28 | 40.94559 | -103.54555 | 35021 ft | 442 kts | 25° |
| 2026-05-08 11:28 | 40.99724 | -103.50084 | 35022 ft | 444 kts | 25° |
| 2026-05-08 11:29 | 41.04853 | -103.45644 | 35022 ft | 444 kts | 25° |
| 2026-05-08 11:29 | 41.10037 | -103.41144 | 35013 ft | 446 kts | 25° |
| 2026-05-08 11:30 | 41.15271 | -103.36603 | 35006 ft | 447 kts | 25° |
| 2026-05-08 11:30 | 41.20398 | -103.31729 | 34998 ft | 456 kts | 31° |
| 2026-05-08 11:31 | 41.25057 | -103.26236 | 34997 ft | 463 kts | 37° |
| 2026-05-08 11:31 | 41.29514 | -103.19945 | 34983 ft | 468 kts | 40° |
| 2026-05-08 11:32 | 41.33849 | -103.13531 | 34980 ft | 470 kts | 41° |
| 2026-05-08 11:32 | 41.38258 | -103.07006 | 34961 ft | 472 kts | 41° |
| 2026-05-08 11:33 | 41.42670 | -103.00470 | 34954 ft | 473 kts | 41° |
| 2026-05-08 11:33 | 41.47060 | -102.93956 | 34961 ft | 474 kts | 41° |
| 2026-05-08 11:34 | 41.51472 | -102.87440 | 34960 ft | 472 kts | 40° |
| 2026-05-08 11:34 | 41.56024 | -102.81133 | 34948 ft | 473 kts | 39° |
| 2026-05-08 11:35 | 41.60594 | -102.74844 | 34946 ft | 474 kts | 39° |
| 2026-05-08 11:35 | 41.65191 | -102.68485 | 34955 ft | 474 kts | 40° |
| 2026-05-08 11:36 | 41.69784 | -102.62114 | 34953 ft | 474 kts | 40° |
| 2026-05-08 11:36 | 41.74347 | -102.55767 | 34955 ft | 475 kts | 40° |
| 2026-05-08 11:37 | 41.78934 | -102.49367 | 34951 ft | 475 kts | 40° |
| 2026-05-08 11:37 | 41.83527 | -102.42951 | 34953 ft | 476 kts | 40° |
| 2026-05-08 11:38 | 41.88102 | -102.36543 | 34963 ft | 477 kts | 40° |
| 2026-05-08 11:38 | 41.92676 | -102.30100 | 34953 ft | 477 kts | 41° |
| 2026-05-08 11:39 | 41.97265 | -102.23617 | 34946 ft | 478 kts | 41° |
| 2026-05-08 11:39 | 42.01882 | -102.17091 | 34932 ft | 478 kts | 41° |
| 2026-05-08 11:40 | 42.06474 | -102.10596 | 34943 ft | 477 kts | 41° |
| 2026-05-08 11:40 | 42.11042 | -102.04126 | 35033 ft | 477 kts | 41° |
| 2026-05-08 11:41 | 42.15647 | -101.97633 | 34957 ft | 476 kts | 41° |
| 2026-05-08 11:41 | 42.20147 | -101.91253 | 34927 ft | 476 kts | 41° |
| 2026-05-08 11:42 | 42.24711 | -101.84753 | 34916 ft | 476 kts | 41° |
| 2026-05-08 11:42 | 42.29256 | -101.78259 | 34927 ft | 477 kts | 41° |
| 2026-05-08 11:43 | 42.33828 | -101.71714 | 34915 ft | 477 kts | 41° |
| 2026-05-08 11:43 | 42.38358 | -101.65211 | 34905 ft | 478 kts | 41° |
| 2026-05-08 11:44 | 42.42909 | -101.58662 | 34902 ft | 477 kts | 41° |
| 2026-05-08 11:44 | 42.47449 | -101.52113 | 34914 ft | 477 kts | 41° |
| 2026-05-08 11:45 | 42.51991 | -101.45548 | 34910 ft | 477 kts | 41° |
| 2026-05-08 11:45 | 42.56504 | -101.39013 | 34903 ft | 476 kts | 41° |
| 2026-05-08 11:46 | 42.61029 | -101.32434 | 34900 ft | 476 kts | 42° |
| 2026-05-08 11:46 | 42.65568 | -101.25794 | 34902 ft | 477 kts | 42° |
| 2026-05-08 11:47 | 42.70069 | -101.19211 | 34885 ft | 476 kts | 42° |
| 2026-05-08 11:47 | 42.74554 | -101.12648 | 34901 ft | 476 kts | 42° |
| 2026-05-08 11:48 | 42.79068 | -101.06030 | 34900 ft | 475 kts | 41° |
| 2026-05-08 11:48 | 42.83548 | -100.99448 | 34897 ft | 474 kts | 42° |
| 2026-05-08 11:49 | 42.88002 | -100.92896 | 34889 ft | 475 kts | 42° |
| 2026-05-08 11:49 | 42.92484 | -100.86285 | 34901 ft | 475 kts | 42° |
| 2026-05-08 11:50 | 42.96949 | -100.79681 | 34876 ft | 475 kts | 42° |
| 2026-05-08 11:50 | 43.01429 | -100.73038 | 34893 ft | 475 kts | 42° |
| 2026-05-08 11:51 | 43.05867 | -100.66444 | 34893 ft | 474 kts | 41° |
| 2026-05-08 11:51 | 43.10336 | -100.59792 | 34892 ft | 476 kts | 41° |
| 2026-05-08 11:52 | 43.14827 | -100.53127 | 34883 ft | 475 kts | 41° |
| 2026-05-08 11:52 | 43.19334 | -100.46407 | 34872 ft | 477 kts | 41° |
| 2026-05-08 11:53 | 43.23815 | -100.39692 | 34870 ft | 477 kts | 41° |
| 2026-05-08 11:53 | 43.28319 | -100.32916 | 34863 ft | 478 kts | 43° |
| 2026-05-08 11:54 | 43.32752 | -100.26205 | 34861 ft | 479 kts | 42° |
| 2026-05-08 11:54 | 43.37212 | -100.19451 | 34859 ft | 479 kts | 43° |
| 2026-05-08 11:55 | 43.41694 | -100.12659 | 34854 ft | 479 kts | 42° |
| 2026-05-08 11:55 | 43.46220 | -100.05787 | 34846 ft | 479 kts | 42° |
| 2026-05-08 11:56 | 43.50760 | -99.99097 | 34844 ft | 477 kts | 39° |
| 2026-05-08 11:56 | 43.55559 | -99.92847 | 34833 ft | 475 kts | 37° |
| 2026-05-08 11:57 | 43.60397 | -99.86635 | 34831 ft | 476 kts | 37° |
| 2026-05-08 11:57 | 43.65261 | -99.80361 | 34820 ft | 476 kts | 37° |
| 2026-05-08 11:58 | 43.70068 | -99.74138 | 34816 ft | 477 kts | 37° |
| 2026-05-08 11:58 | 43.74896 | -99.67869 | 34821 ft | 477 kts | 37° |
| 2026-05-08 11:59 | 43.82176 | -99.58386 | 34803 ft | 478 kts | 37° |
| 2026-05-08 11:59 | 43.86980 | -99.52109 | 34804 ft | 477 kts | 37° |
| 2026-05-08 12:00 | 43.91800 | -99.45795 | 34832 ft | 477 kts | 37° |
| 2026-05-08 12:00 | 43.96629 | -99.39460 | 34809 ft | 477 kts | 37° |
| 2026-05-08 12:01 | 44.01414 | -99.33160 | 34807 ft | 477 kts | 38° |
| 2026-05-08 12:01 | 44.06273 | -99.26717 | 34806 ft | 478 kts | 38° |
| 2026-05-08 12:02 | 44.11081 | -99.20345 | 34805 ft | 478 kts | 38° |
| 2026-05-08 12:02 | 44.15910 | -99.13974 | 34814 ft | 479 kts | 38° |
| 2026-05-08 12:03 | 44.20771 | -99.07538 | 34815 ft | 480 kts | 38° |
| 2026-05-08 12:03 | 44.25587 | -99.01135 | 34823 ft | 480 kts | 38° |
| 2026-05-08 12:04 | 44.30438 | -98.94662 | 34821 ft | 480 kts | 38° |
| 2026-05-08 12:04 | 44.35257 | -98.88215 | 34823 ft | 480 kts | 38° |
| 2026-05-08 12:05 | 44.40067 | -98.81766 | 34816 ft | 480 kts | 38° |
| 2026-05-08 12:05 | 44.44850 | -98.75335 | 34821 ft | 480 kts | 38° |
| 2026-05-08 12:06 | 44.49692 | -98.68813 | 34823 ft | 481 kts | 38° |
| 2026-05-08 12:06 | 44.54489 | -98.62331 | 34821 ft | 480 kts | 38° |
| 2026-05-08 12:07 | 44.59278 | -98.55848 | 34817 ft | 481 kts | 38° |
| 2026-05-08 12:07 | 44.64093 | -98.49312 | 34815 ft | 481 kts | 38° |
| 2026-05-08 12:08 | 44.68891 | -98.42783 | 34808 ft | 481 kts | 38° |
| 2026-05-08 12:08 | 44.73694 | -98.36230 | 34808 ft | 480 kts | 38° |
| 2026-05-08 12:09 | 44.78465 | -98.29684 | 34807 ft | 480 kts | 38° |
| 2026-05-08 12:09 | 44.83287 | -98.23051 | 34808 ft | 480 kts | 38° |
| 2026-05-08 12:10 | 44.88029 | -98.16528 | 34808 ft | 479 kts | 39° |
| 2026-05-08 12:10 | 44.92803 | -98.09952 | 34810 ft | 479 kts | 38° |
| 2026-05-08 12:11 | 44.97587 | -98.03347 | 34810 ft | 479 kts | 38° |
| 2026-05-08 12:11 | 45.02329 | -97.96786 | 34803 ft | 479 kts | 38° |
| 2026-05-08 12:12 | 45.07095 | -97.90185 | 34807 ft | 479 kts | 38° |
| 2026-05-08 12:12 | 45.11827 | -97.83624 | 34808 ft | 479 kts | 38° |
| 2026-05-08 12:13 | 45.16601 | -97.77020 | 34807 ft | 480 kts | 38° |
| 2026-05-08 12:13 | 45.21349 | -97.70417 | 34799 ft | 480 kts | 38° |
| 2026-05-08 12:14 | 45.26067 | -97.63827 | 34798 ft | 481 kts | 38° |
| 2026-05-08 12:14 | 45.30815 | -97.57175 | 34801 ft | 481 kts | 38° |
| 2026-05-08 12:15 | 45.35585 | -97.50473 | 34793 ft | 480 kts | 38° |
| 2026-05-08 12:15 | 45.40341 | -97.43773 | 34800 ft | 481 kts | 38° |
| 2026-05-08 12:16 | 45.45078 | -97.37081 | 34791 ft | 481 kts | 39° |
| 2026-05-08 12:16 | 45.49780 | -97.30404 | 34786 ft | 482 kts | 39° |
| 2026-05-08 12:17 | 45.54551 | -97.23598 | 34780 ft | 482 kts | 39° |
| 2026-05-08 12:17 | 45.59310 | -97.16812 | 34772 ft | 481 kts | 39° |
| 2026-05-08 12:18 | 45.64029 | -97.10075 | 34773 ft | 483 kts | 39° |
| 2026-05-08 12:18 | 45.68796 | -97.03255 | 34774 ft | 483 kts | 39° |
| 2026-05-08 12:19 | 45.73557 | -96.96427 | 34773 ft | 483 kts | 39° |
| 2026-05-08 12:19 | 45.78294 | -96.89614 | 34773 ft | 483 kts | 39° |
| 2026-05-08 12:20 | 45.83034 | -96.82783 | 34772 ft | 482 kts | 39° |
| 2026-05-08 12:20 | 45.87750 | -96.75967 | 34769 ft | 483 kts | 39° |
| 2026-05-08 12:21 | 45.92482 | -96.69113 | 34765 ft | 483 kts | 39° |
| 2026-05-08 12:21 | 45.97195 | -96.62268 | 34760 ft | 483 kts | 39° |
| 2026-05-08 12:22 | 46.01950 | -96.55341 | 34763 ft | 483 kts | 39° |
| 2026-05-08 12:22 | 46.06697 | -96.48407 | 34759 ft | 484 kts | 39° |
| 2026-05-08 12:23 | 46.11410 | -96.41511 | 34758 ft | 483 kts | 39° |
| 2026-05-08 12:23 | 46.16160 | -96.34586 | 34765 ft | 484 kts | 40° |
| 2026-05-08 12:24 | 46.20889 | -96.27622 | 34761 ft | 485 kts | 40° |
| 2026-05-08 12:24 | 46.25529 | -96.20759 | 34761 ft | 486 kts | 40° |
| 2026-05-08 12:25 | 46.30123 | -96.13956 | 34771 ft | 486 kts | 40° |
| 2026-05-08 12:25 | 46.34852 | -96.06938 | 34782 ft | 486 kts | 40° |
| 2026-05-08 12:26 | 46.39549 | -95.99953 | 34762 ft | 485 kts | 40° |
| 2026-05-08 12:26 | 46.44241 | -95.92959 | 34754 ft | 486 kts | 40° |
| 2026-05-08 12:27 | 46.48954 | -95.85914 | 34749 ft | 486 kts | 40° |
| 2026-05-08 12:27 | 46.53659 | -95.78863 | 34739 ft | 487 kts | 40° |
| 2026-05-08 12:28 | 46.58355 | -95.71806 | 34738 ft | 487 kts | 40° |
| 2026-05-08 12:28 | 46.63052 | -95.64726 | 34748 ft | 486 kts | 40° |
| 2026-05-08 12:29 | 46.67716 | -95.57678 | 34747 ft | 486 kts | 40° |
| 2026-05-08 12:29 | 46.72412 | -95.50567 | 34744 ft | 486 kts | 41° |
| 2026-05-08 12:30 | 46.77101 | -95.43446 | 34750 ft | 486 kts | 41° |
| 2026-05-08 12:30 | 46.81776 | -95.36328 | 34750 ft | 487 kts | 41° |
| 2026-05-08 12:31 | 46.86453 | -95.29164 | 34747 ft | 487 kts | 42° |
| 2026-05-08 12:31 | 46.91050 | -95.22093 | 34748 ft | 487 kts | 42° |
| 2026-05-08 12:32 | 46.95731 | -95.14893 | 34748 ft | 487 kts | 41° |
| 2026-05-08 12:32 | 47.00417 | -95.07675 | 34747 ft | 487 kts | 41° |
| 2026-05-08 12:33 | 47.05090 | -95.00462 | 34756 ft | 488 kts | 41° |
| 2026-05-08 12:33 | 47.09745 | -94.93256 | 34760 ft | 487 kts | 42° |
| 2026-05-08 12:34 | 47.14407 | -94.86056 | 34762 ft | 486 kts | 42° |
| 2026-05-08 12:34 | 47.19082 | -94.78813 | 34762 ft | 487 kts | 42° |
| 2026-05-08 12:35 | 47.23646 | -94.71705 | 34770 ft | 486 kts | 42° |
| 2026-05-08 12:35 | 47.28271 | -94.64475 | 34773 ft | 486 kts | 42° |
| 2026-05-08 12:36 | 47.32890 | -94.57228 | 34772 ft | 486 kts | 42° |
| 2026-05-08 12:36 | 47.37514 | -94.49953 | 34768 ft | 486 kts | 42° |
| 2026-05-08 12:37 | 47.42119 | -94.42689 | 34758 ft | 486 kts | 42° |
| 2026-05-08 12:37 | 47.46729 | -94.35394 | 34752 ft | 486 kts | 42° |
| 2026-05-08 12:38 | 47.51323 | -94.28078 | 34750 ft | 486 kts | 43° |
| 2026-05-08 12:38 | 47.55943 | -94.20702 | 34750 ft | 486 kts | 43° |
| 2026-05-08 12:39 | 47.60528 | -94.13378 | 34749 ft | 486 kts | 43° |
| 2026-05-08 12:39 | 47.65097 | -94.06066 | 34747 ft | 486 kts | 43° |
| 2026-05-08 12:40 | 47.69668 | -93.98733 | 34745 ft | 486 kts | 43° |
| 2026-05-08 12:40 | 47.74230 | -93.91390 | 34748 ft | 485 kts | 43° |
| 2026-05-08 12:41 | 47.78819 | -93.83988 | 34749 ft | 485 kts | 43° |
| 2026-05-08 12:41 | 47.83345 | -93.76670 | 34745 ft | 485 kts | 43° |
| 2026-05-08 12:42 | 47.87923 | -93.69246 | 34751 ft | 485 kts | 43° |
| 2026-05-08 12:42 | 47.92448 | -93.61887 | 34750 ft | 484 kts | 43° |
| 2026-05-08 12:43 | 47.97001 | -93.54461 | 34747 ft | 484 kts | 43° |
| 2026-05-08 12:43 | 48.01526 | -93.47053 | 34752 ft | 484 kts | 43° |
| 2026-05-08 12:44 | 48.06024 | -93.39674 | 34749 ft | 484 kts | 43° |
| 2026-05-08 12:44 | 48.10552 | -93.32223 | 34748 ft | 484 kts | 44° |
| 2026-05-08 12:45 | 48.15030 | -93.24847 | 34752 ft | 484 kts | 43° |
| 2026-05-08 12:45 | 48.19552 | -93.17382 | 34746 ft | 484 kts | 44° |
| 2026-05-08 12:46 | 48.24017 | -93.09979 | 34746 ft | 484 kts | 44° |
| 2026-05-08 12:46 | 48.28521 | -93.02486 | 34742 ft | 484 kts | 44° |
| 2026-05-08 12:47 | 48.33025 | -92.94972 | 34736 ft | 484 kts | 44° |
| 2026-05-08 12:47 | 48.37495 | -92.87495 | 34728 ft | 484 kts | 44° |
| 2026-05-08 12:48 | 48.41991 | -92.79953 | 34724 ft | 484 kts | 44° |
| 2026-05-08 12:48 | 48.46454 | -92.72440 | 34724 ft | 484 kts | 43° |
| 2026-05-08 12:49 | 48.50952 | -92.64850 | 34727 ft | 485 kts | 43° |
| 2026-05-08 12:49 | 48.55414 | -92.57299 | 34729 ft | 484 kts | 43° |
| 2026-05-08 12:50 | 48.59882 | -92.49715 | 34731 ft | 484 kts | 43° |
| 2026-05-08 12:50 | 48.64325 | -92.42154 | 34734 ft | 484 kts | 43° |
| 2026-05-08 12:51 | 48.71014 | -92.30712 | 34734 ft | 485 kts | 44° |
| 2026-05-08 12:52 | 48.75479 | -92.23024 | 34735 ft | 485 kts | 44° |
| 2026-05-08 12:52 | 48.82116 | -92.11581 | 34729 ft | 485 kts | 44° |
| 2026-05-08 12:53 | 48.86561 | -92.03903 | 34726 ft | 485 kts | 44° |
| 2026-05-08 12:53 | 48.91002 | -91.96215 | 34724 ft | 486 kts | 44° |
| 2026-05-08 12:54 | 48.95435 | -91.88514 | 34720 ft | 486 kts | 44° |
| 2026-05-08 12:54 | 48.99872 | -91.80778 | 34718 ft | 485 kts | 44° |
| 2026-05-08 12:55 | 49.04326 | -91.72995 | 34710 ft | 485 kts | 44° |
| 2026-05-08 12:55 | 49.08776 | -91.65198 | 34703 ft | 485 kts | 44° |
| 2026-05-08 12:56 | 49.13194 | -91.57458 | 34691 ft | 485 kts | 44° |
| 2026-05-08 12:56 | 49.17419 | -91.50053 | 34685 ft | 485 kts | 44° |
| 2026-05-08 12:57 | 49.21820 | -91.42290 | 34690 ft | 485 kts | 44° |
| 2026-05-08 12:57 | 49.26250 | -91.34442 | 34677 ft | 486 kts | 44° |
| 2026-05-08 12:58 | 49.30652 | -91.26584 | 34691 ft | 487 kts | 45° |
| 2026-05-08 12:58 | 49.35065 | -91.18689 | 34682 ft | 487 kts | 44° |
| 2026-05-08 12:59 | 49.39436 | -91.10858 | 34684 ft | 487 kts | 44° |
| 2026-05-08 12:59 | 49.43819 | -91.02990 | 34678 ft | 487 kts | 44° |
| 2026-05-08 13:00 | 49.48213 | -90.95079 | 34692 ft | 487 kts | 44° |
| 2026-05-08 13:00 | 49.52597 | -90.87165 | 34687 ft | 487 kts | 44° |
| 2026-05-08 13:01 | 49.56963 | -90.79256 | 34679 ft | 488 kts | 44° |
| 2026-05-08 13:01 | 49.61343 | -90.71302 | 34688 ft | 488 kts | 44° |
| 2026-05-08 13:02 | 49.65727 | -90.63313 | 34672 ft | 489 kts | 44° |
| 2026-05-08 13:02 | 49.70105 | -90.55309 | 34686 ft | 488 kts | 44° |
| 2026-05-08 13:03 | 49.74484 | -90.47282 | 34674 ft | 488 kts | 44° |
| 2026-05-08 13:03 | 49.78835 | -90.39281 | 34685 ft | 488 kts | 44° |
| 2026-05-08 13:04 | 49.83190 | -90.31240 | 34680 ft | 489 kts | 45° |
| 2026-05-08 13:04 | 49.87522 | -90.23193 | 34672 ft | 490 kts | 45° |
| 2026-05-08 13:05 | 49.91896 | -90.15065 | 34661 ft | 489 kts | 45° |
| 2026-05-08 13:05 | 49.96246 | -90.06968 | 34672 ft | 490 kts | 45° |
| 2026-05-08 13:06 | 50.00624 | -89.98798 | 34659 ft | 490 kts | 45° |
| 2026-05-08 13:06 | 50.05000 | -89.90707 | 34655 ft | 490 kts | 44° |
| 2026-05-08 13:07 | 50.09366 | -89.82639 | 34642 ft | 490 kts | 44° |
| 2026-05-08 13:07 | 50.13767 | -89.74513 | 34635 ft | 491 kts | 44° |
| 2026-05-08 13:08 | 50.18072 | -89.66543 | 34657 ft | 492 kts | 44° |
| 2026-05-08 13:08 | 50.22446 | -89.58390 | 34650 ft | 491 kts | 45° |
| 2026-05-08 13:09 | 50.26834 | -89.50178 | 34645 ft | 491 kts | 45° |
| 2026-05-08 13:09 | 50.31181 | -89.42011 | 34642 ft | 491 kts | 45° |
| 2026-05-08 13:10 | 50.35550 | -89.33773 | 34655 ft | 491 kts | 46° |
| 2026-05-08 13:10 | 50.39739 | -89.25821 | 34648 ft | 493 kts | 46° |
| 2026-05-08 13:11 | 50.44031 | -89.17652 | 34651 ft | 493 kts | 46° |
| 2026-05-08 13:11 | 50.48373 | -89.09378 | 34630 ft | 492 kts | 46° |
| 2026-05-08 13:12 | 50.52693 | -89.01127 | 34646 ft | 491 kts | 46° |
| 2026-05-08 13:12 | 50.57020 | -88.92838 | 34637 ft | 492 kts | 46° |
| 2026-05-08 13:13 | 50.61340 | -88.84538 | 34620 ft | 492 kts | 46° |
| 2026-05-08 13:13 | 50.65633 | -88.76263 | 34629 ft | 492 kts | 46° |
| 2026-05-08 13:14 | 50.69965 | -88.67883 | 34639 ft | 493 kts | 46° |
| 2026-05-08 13:14 | 50.74292 | -88.59491 | 34636 ft | 492 kts | 46° |
| 2026-05-08 13:15 | 50.78600 | -88.51107 | 34636 ft | 492 kts | 46° |
| 2026-05-08 13:15 | 50.82889 | -88.42731 | 34639 ft | 492 kts | 46° |
| 2026-05-08 13:16 | 50.87181 | -88.34322 | 34634 ft | 492 kts | 47° |
| 2026-05-08 13:16 | 50.91363 | -88.26076 | 34627 ft | 492 kts | 47° |
| 2026-05-08 13:17 | 50.95626 | -88.17641 | 34634 ft | 492 kts | 47° |
| 2026-05-08 13:17 | 50.99902 | -88.09173 | 34628 ft | 493 kts | 47° |
| 2026-05-08 13:18 | 51.04183 | -88.00671 | 34637 ft | 493 kts | 47° |
| 2026-05-08 13:18 | 51.08451 | -87.92172 | 34634 ft | 493 kts | 47° |
| 2026-05-08 13:19 | 51.12713 | -87.83686 | 34634 ft | 493 kts | 47° |
| 2026-05-08 13:19 | 51.16999 | -87.75151 | 34639 ft | 493 kts | 47° |
| 2026-05-08 13:20 | 51.21272 | -87.66587 | 34636 ft | 492 kts | 47° |
| 2026-05-08 13:20 | 51.25522 | -87.58018 | 34634 ft | 492 kts | 47° |
| 2026-05-08 13:21 | 51.29752 | -87.49458 | 34639 ft | 492 kts | 47° |
| 2026-05-08 13:21 | 51.33974 | -87.40885 | 34637 ft | 492 kts | 47° |
| 2026-05-08 13:22 | 51.38207 | -87.32255 | 34639 ft | 493 kts | 48° |
| 2026-05-08 13:22 | 51.42421 | -87.23603 | 34638 ft | 493 kts | 48° |
| 2026-05-08 13:23 | 51.46624 | -87.14960 | 34640 ft | 493 kts | 48° |
| 2026-05-08 13:23 | 51.50833 | -87.06290 | 34633 ft | 493 kts | 48° |
| 2026-05-08 13:24 | 51.55015 | -86.97649 | 34630 ft | 493 kts | 48° |
| 2026-05-08 13:24 | 51.59224 | -86.88927 | 34629 ft | 494 kts | 48° |
| 2026-05-08 13:25 | 51.63396 | -86.80252 | 34630 ft | 493 kts | 48° |
| 2026-05-08 13:25 | 51.67565 | -86.71553 | 34633 ft | 493 kts | 48° |
| 2026-05-08 13:26 | 51.71737 | -86.62819 | 34639 ft | 493 kts | 48° |
| 2026-05-08 13:26 | 51.75889 | -86.54100 | 34641 ft | 492 kts | 48° |
| 2026-05-08 13:27 | 51.80051 | -86.45327 | 34643 ft | 492 kts | 48° |
| 2026-05-08 13:27 | 51.84200 | -86.36552 | 34644 ft | 493 kts | 48° |
| 2026-05-08 13:28 | 51.88351 | -86.27718 | 34636 ft | 494 kts | 49° |
| 2026-05-08 13:28 | 51.92414 | -86.19036 | 34635 ft | 494 kts | 49° |
| 2026-05-08 13:29 | 51.96545 | -86.10195 | 34636 ft | 494 kts | 49° |
| 2026-05-08 13:29 | 52.00686 | -86.01314 | 34640 ft | 493 kts | 49° |
| 2026-05-08 13:30 | 52.04808 | -85.92446 | 34641 ft | 493 kts | 49° |
| 2026-05-08 13:30 | 52.08923 | -85.83562 | 34640 ft | 493 kts | 49° |
| 2026-05-08 13:31 | 52.13049 | -85.74657 | 34637 ft | 493 kts | 49° |
| 2026-05-08 13:31 | 52.17160 | -85.65778 | 34636 ft | 492 kts | 49° |
| 2026-05-08 13:32 | 52.21199 | -85.56995 | 34636 ft | 492 kts | 50° |
| 2026-05-08 13:32 | 52.25273 | -85.48083 | 34631 ft | 492 kts | 50° |
| 2026-05-08 13:33 | 52.29346 | -85.39138 | 34631 ft | 493 kts | 50° |
| 2026-05-08 13:33 | 52.33430 | -85.30123 | 34633 ft | 493 kts | 51° |
| 2026-05-08 13:34 | 52.37494 | -85.21098 | 34637 ft | 493 kts | 51° |
| 2026-05-08 13:34 | 52.41523 | -85.12138 | 34636 ft | 492 kts | 51° |
| 2026-05-08 13:35 | 52.45567 | -85.03123 | 34634 ft | 492 kts | 51° |
| 2026-05-08 13:35 | 52.49609 | -84.94085 | 34634 ft | 492 kts | 51° |
| 2026-05-08 13:36 | 52.53613 | -84.85098 | 34635 ft | 492 kts | 51° |
| 2026-05-08 13:36 | 52.57644 | -84.76022 | 34628 ft | 492 kts | 51° |
| 2026-05-08 13:37 | 52.61658 | -84.66951 | 34622 ft | 492 kts | 51° |
| 2026-05-08 13:37 | 52.65685 | -84.57816 | 34621 ft | 492 kts | 51° |
| 2026-05-08 13:38 | 52.69663 | -84.48766 | 34617 ft | 492 kts | 51° |
| 2026-05-08 13:38 | 52.73665 | -84.39626 | 34614 ft | 492 kts | 51° |
| 2026-05-08 13:39 | 52.77651 | -84.30476 | 34618 ft | 492 kts | 52° |
| 2026-05-08 13:39 | 52.81525 | -84.21529 | 34617 ft | 492 kts | 52° |
| 2026-05-08 13:40 | 52.85561 | -84.12192 | 34618 ft | 492 kts | 52° |
| 2026-05-08 13:40 | 52.89517 | -84.03019 | 34627 ft | 492 kts | 52° |
| 2026-05-08 13:41 | 52.93471 | -83.93821 | 34634 ft | 492 kts | 52° |
| 2026-05-08 13:41 | 52.97404 | -83.84642 | 34634 ft | 492 kts | 52° |
| 2026-05-08 13:42 | 53.01356 | -83.75383 | 34637 ft | 492 kts | 52° |
| 2026-05-08 13:42 | 53.05288 | -83.66138 | 34637 ft | 492 kts | 53° |
| 2026-05-08 13:43 | 53.09218 | -83.56863 | 34638 ft | 492 kts | 53° |
| 2026-05-08 13:43 | 53.13148 | -83.47599 | 34637 ft | 491 kts | 52° |
| 2026-05-08 13:44 | 53.17085 | -83.38305 | 34637 ft | 491 kts | 53° |
| 2026-05-08 13:44 | 53.20988 | -83.29006 | 34633 ft | 491 kts | 54° |
| 2026-05-08 13:45 | 53.24864 | -83.19702 | 34634 ft | 491 kts | 54° |
| 2026-05-08 13:45 | 53.28759 | -83.10328 | 34631 ft | 490 kts | 54° |
| 2026-05-08 13:46 | 53.32617 | -83.01018 | 34628 ft | 490 kts | 54° |
| 2026-05-08 13:46 | 53.36474 | -82.91678 | 34626 ft | 490 kts | 54° |
| 2026-05-08 13:47 | 53.40333 | -82.82298 | 34628 ft | 490 kts | 54° |
| 2026-05-08 13:47 | 53.44180 | -82.72916 | 34630 ft | 490 kts | 54° |
| 2026-05-08 13:48 | 53.48021 | -82.63509 | 34632 ft | 490 kts | 54° |
| 2026-05-08 13:48 | 53.51853 | -82.54090 | 34636 ft | 490 kts | 54° |
| 2026-05-08 13:49 | 53.55666 | -82.44685 | 34636 ft | 490 kts | 54° |
| 2026-05-08 13:49 | 53.59481 | -82.35236 | 34632 ft | 490 kts | 54° |
| 2026-05-08 13:50 | 53.63289 | -82.25744 | 34631 ft | 490 kts | 55° |
| 2026-05-08 13:50 | 53.67092 | -82.16231 | 34634 ft | 490 kts | 55° |
| 2026-05-08 13:51 | 53.70870 | -82.06760 | 34635 ft | 490 kts | 55° |
| 2026-05-08 13:51 | 53.74641 | -81.97278 | 34640 ft | 490 kts | 55° |
| 2026-05-08 13:52 | 53.78437 | -81.87697 | 34646 ft | 491 kts | 55° |
| 2026-05-08 13:52 | 53.82198 | -81.78172 | 34641 ft | 490 kts | 55° |
| 2026-05-08 13:53 | 53.85959 | -81.68610 | 34638 ft | 490 kts | 55° |
| 2026-05-08 13:53 | 53.89733 | -81.58974 | 34637 ft | 490 kts | 55° |
| 2026-05-08 13:54 | 53.93469 | -81.49403 | 34638 ft | 490 kts | 56° |
| 2026-05-08 13:54 | 53.97218 | -81.39759 | 34638 ft | 490 kts | 56° |
| 2026-05-08 13:55 | 54.00970 | -81.30063 | 34641 ft | 490 kts | 56° |
| 2026-05-08 13:56 | 54.06524 | -81.15606 | 34633 ft | 490 kts | 56° |
| 2026-05-08 13:56 | 54.10241 | -81.05912 | 34630 ft | 490 kts | 56° |
| 2026-05-08 13:57 | 54.13969 | -80.96226 | 34629 ft | 489 kts | 56° |
| 2026-05-08 13:57 | 54.17668 | -80.86564 | 34636 ft | 490 kts | 56° |
| 2026-05-08 13:58 | 54.21379 | -80.76793 | 34644 ft | 490 kts | 57° |
| 2026-05-08 13:58 | 54.25055 | -80.67059 | 34646 ft | 490 kts | 57° |
| 2026-05-08 13:59 | 54.28728 | -80.57293 | 34646 ft | 489 kts | 57° |
| 2026-05-08 13:59 | 54.32383 | -80.47537 | 34645 ft | 490 kts | 57° |
| 2026-05-08 14:00 | 54.36029 | -80.37766 | 34647 ft | 490 kts | 57° |
| 2026-05-08 14:00 | 54.39700 | -80.27875 | 34646 ft | 490 kts | 58° |
| 2026-05-08 14:01 | 54.43315 | -80.18084 | 34647 ft | 490 kts | 58° |
| 2026-05-08 14:01 | 54.46946 | -80.08234 | 34646 ft | 489 kts | 58° |
| 2026-05-08 14:02 | 54.50473 | -79.98326 | 34648 ft | 489 kts | 61° |
| 2026-05-08 14:02 | 54.53675 | -79.88052 | 34649 ft | 489 kts | 62° |
| 2026-05-08 14:03 | 54.56851 | -79.77663 | 34656 ft | 489 kts | 62° |
| 2026-05-08 14:03 | 54.59993 | -79.67355 | 34657 ft | 489 kts | 62° |
| 2026-05-08 14:04 | 54.63141 | -79.56997 | 34657 ft | 489 kts | 62° |
| 2026-05-08 14:04 | 54.66275 | -79.46652 | 34657 ft | 489 kts | 62° |
| 2026-05-08 14:05 | 54.69429 | -79.36199 | 34663 ft | 489 kts | 62° |
| 2026-05-08 14:05 | 54.72539 | -79.25821 | 34661 ft | 489 kts | 63° |
| 2026-05-08 14:06 | 54.75637 | -79.15434 | 34664 ft | 488 kts | 63° |
| 2026-05-08 14:06 | 54.78735 | -79.05016 | 34665 ft | 488 kts | 63° |
| 2026-05-08 14:07 | 54.81833 | -78.94558 | 34669 ft | 488 kts | 63° |
| 2026-05-08 14:07 | 54.84924 | -78.84081 | 34668 ft | 488 kts | 63° |
| 2026-05-08 14:08 | 54.87995 | -78.73628 | 34668 ft | 488 kts | 63° |
| 2026-05-08 14:08 | 54.91044 | -78.63201 | 34672 ft | 487 kts | 63° |
| 2026-05-08 14:09 | 54.94107 | -78.52682 | 34674 ft | 487 kts | 63° |
| 2026-05-08 14:09 | 54.97135 | -78.42238 | 34674 ft | 487 kts | 63° |
| 2026-05-08 14:10 | 55.00166 | -78.31733 | 34672 ft | 487 kts | 64° |
| 2026-05-08 14:10 | 55.03185 | -78.21188 | 34675 ft | 487 kts | 64° |
| 2026-05-08 14:11 | 55.06228 | -78.10529 | 34674 ft | 487 kts | 64° |
| 2026-05-08 14:11 | 55.09219 | -78.00017 | 34672 ft | 487 kts | 64° |
| 2026-05-08 14:12 | 55.12231 | -77.89449 | 34673 ft | 487 kts | 64° |
| 2026-05-08 14:12 | 55.15254 | -77.78829 | 34673 ft | 487 kts | 64° |
| 2026-05-08 14:13 | 55.18240 | -77.68240 | 34668 ft | 487 kts | 64° |
| 2026-05-08 14:13 | 55.21199 | -77.57667 | 34666 ft | 487 kts | 64° |
| 2026-05-08 14:14 | 55.24161 | -77.47024 | 34674 ft | 487 kts | 64° |
| 2026-05-08 14:14 | 55.27092 | -77.36444 | 34676 ft | 487 kts | 64° |
| 2026-05-08 14:15 | 55.30032 | -77.25757 | 34673 ft | 487 kts | 65° |
| 2026-05-08 14:15 | 55.32986 | -77.14963 | 34670 ft | 487 kts | 65° |
| 2026-05-08 14:16 | 55.35902 | -77.04275 | 34668 ft | 487 kts | 65° |
| 2026-05-08 14:16 | 55.38802 | -76.93608 | 34666 ft | 487 kts | 65° |
| 2026-05-08 14:17 | 55.41707 | -76.82872 | 34663 ft | 486 kts | 65° |
| 2026-05-08 14:17 | 55.44594 | -76.72150 | 34660 ft | 486 kts | 65° |
| 2026-05-08 14:18 | 55.47454 | -76.61481 | 34661 ft | 486 kts | 65° |
| 2026-05-08 14:18 | 55.50324 | -76.50723 | 34665 ft | 486 kts | 65° |
| 2026-05-08 14:19 | 55.53175 | -76.39986 | 34667 ft | 486 kts | 65° |
| 2026-05-08 14:19 | 55.56016 | -76.29224 | 34665 ft | 486 kts | 66° |
| 2026-05-08 14:20 | 55.58821 | -76.18523 | 34667 ft | 486 kts | 66° |
| 2026-05-08 14:20 | 55.61635 | -76.07756 | 34670 ft | 486 kts | 66° |
| 2026-05-08 14:21 | 55.64465 | -75.96889 | 34672 ft | 485 kts | 66° |
| 2026-05-08 14:21 | 55.67256 | -75.86126 | 34674 ft | 485 kts | 66° |
| 2026-05-08 14:22 | 55.70052 | -75.75290 | 34675 ft | 485 kts | 66° |
| 2026-05-08 14:22 | 55.72831 | -75.64462 | 34676 ft | 485 kts | 66° |
| 2026-05-08 14:23 | 55.75612 | -75.53575 | 34679 ft | 485 kts | 66° |
| 2026-05-08 14:23 | 55.78386 | -75.42662 | 34682 ft | 485 kts | 66° |
| 2026-05-08 14:24 | 55.81143 | -75.31760 | 34676 ft | 484 kts | 67° |
| 2026-05-08 14:24 | 55.83830 | -75.21058 | 34676 ft | 484 kts | 67° |
| 2026-05-08 14:25 | 55.86538 | -75.10234 | 34675 ft | 483 kts | 67° |
| 2026-05-08 14:25 | 55.89240 | -74.99393 | 34671 ft | 483 kts | 67° |
| 2026-05-08 14:26 | 55.91947 | -74.88476 | 34666 ft | 484 kts | 67° |
| 2026-05-08 14:26 | 55.94661 | -74.77483 | 34661 ft | 484 kts | 67° |
| 2026-05-08 14:27 | 55.97340 | -74.66573 | 34657 ft | 484 kts | 67° |
| 2026-05-08 14:27 | 56.00020 | -74.55606 | 34657 ft | 483 kts | 67° |
| 2026-05-08 14:28 | 56.02679 | -74.44672 | 34658 ft | 482 kts | 67° |
| 2026-05-08 14:28 | 56.05341 | -74.33674 | 34667 ft | 482 kts | 68° |
| 2026-05-08 14:29 | 56.07982 | -74.22676 | 34680 ft | 483 kts | 68° |
| 2026-05-08 14:29 | 56.10619 | -74.11654 | 34681 ft | 483 kts | 68° |
| 2026-05-08 14:30 | 56.13286 | -74.00590 | 34680 ft | 483 kts | 68° |
| 2026-05-08 14:30 | 56.15865 | -73.89791 | 34678 ft | 483 kts | 68° |
| 2026-05-08 14:31 | 56.18483 | -73.78722 | 34676 ft | 482 kts | 68° |
| 2026-05-08 14:31 | 56.21069 | -73.67710 | 34671 ft | 482 kts | 68° |
| 2026-05-08 14:32 | 56.24948 | -73.51081 | 34666 ft | 482 kts | 68° |
| 2026-05-08 14:32 | 56.27518 | -73.39990 | 34662 ft | 482 kts | 68° |
| 2026-05-08 14:33 | 56.30064 | -73.28930 | 34659 ft | 482 kts | 69° |
| 2026-05-08 14:33 | 56.32616 | -73.17765 | 34655 ft | 482 kts | 69° |
| 2026-05-08 14:34 | 56.35160 | -73.06596 | 34651 ft | 482 kts | 69° |
| 2026-05-08 14:34 | 56.37698 | -72.95408 | 34648 ft | 482 kts | 69° |
| 2026-05-08 14:35 | 56.40222 | -72.84221 | 34647 ft | 482 kts | 69° |
| 2026-05-08 14:35 | 56.42741 | -72.72996 | 34652 ft | 482 kts | 69° |
| 2026-05-08 14:36 | 56.45229 | -72.61855 | 34650 ft | 482 kts | 69° |
| 2026-05-08 14:36 | 56.47718 | -72.50644 | 34651 ft | 482 kts | 69° |
| 2026-05-08 14:37 | 56.50205 | -72.39384 | 34647 ft | 482 kts | 69° |
| 2026-05-08 14:37 | 56.52676 | -72.28126 | 34643 ft | 482 kts | 70° |
| 2026-05-08 14:38 | 56.55087 | -72.17062 | 34641 ft | 481 kts | 70° |
| 2026-05-08 14:38 | 56.57538 | -72.05775 | 34640 ft | 481 kts | 70° |
| 2026-05-08 14:39 | 56.59973 | -71.94508 | 34644 ft | 481 kts | 70° |
| 2026-05-08 14:39 | 56.62380 | -71.83315 | 34643 ft | 481 kts | 70° |
| 2026-05-08 14:40 | 56.64806 | -71.71961 | 34642 ft | 482 kts | 70° |
| 2026-05-08 14:40 | 56.67196 | -71.60708 | 34642 ft | 482 kts | 70° |
| 2026-05-08 14:41 | 56.69599 | -71.49342 | 34643 ft | 481 kts | 70° |
| 2026-05-08 14:41 | 56.71971 | -71.38067 | 34647 ft | 481 kts | 70° |
| 2026-05-08 14:42 | 56.74355 | -71.26650 | 34653 ft | 480 kts | 71° |
| 2026-05-08 14:42 | 56.76635 | -71.15663 | 34651 ft | 481 kts | 71° |
| 2026-05-08 14:43 | 56.78991 | -71.04266 | 34652 ft | 481 kts | 71° |
| 2026-05-08 14:43 | 56.81329 | -70.92893 | 34646 ft | 482 kts | 71° |
| 2026-05-08 14:44 | 56.83663 | -70.81480 | 34644 ft | 482 kts | 71° |
| 2026-05-08 14:44 | 56.85976 | -70.70101 | 34634 ft | 481 kts | 71° |
| 2026-05-08 14:45 | 56.88287 | -70.58678 | 34629 ft | 481 kts | 71° |
| 2026-05-08 14:45 | 56.90580 | -70.47274 | 34628 ft | 480 kts | 71° |
| 2026-05-08 14:46 | 56.92868 | -70.35832 | 34624 ft | 480 kts | 71° |
| 2026-05-08 14:46 | 56.95143 | -70.24377 | 34621 ft | 481 kts | 72° |
| 2026-05-08 14:47 | 56.97389 | -70.13020 | 34623 ft | 481 kts | 72° |
| 2026-05-08 14:47 | 56.99676 | -70.01510 | 34621 ft | 481 kts | 70° |
| 2026-05-08 14:48 | 57.02317 | -69.90306 | 34620 ft | 482 kts | 67° |
| 2026-05-08 14:48 | 57.05088 | -69.79146 | 34608 ft | 481 kts | 67° |
| 2026-05-08 14:49 | 57.07846 | -69.68001 | 34598 ft | 481 kts | 67° |
| 2026-05-08 14:49 | 57.10609 | -69.56769 | 34606 ft | 482 kts | 67° |
| 2026-05-08 14:50 | 57.13403 | -69.45476 | 34611 ft | 482 kts | 66° |
| 2026-05-08 14:50 | 57.16142 | -69.34293 | 34606 ft | 482 kts | 68° |
| 2026-05-08 14:51 | 57.18866 | -69.23035 | 34601 ft | 482 kts | 68° |
| 2026-05-08 14:51 | 57.21585 | -69.11729 | 34596 ft | 482 kts | 68° |
| 2026-05-08 14:52 | 57.25615 | -68.94859 | 34581 ft | 481 kts | 68° |
| 2026-05-08 14:53 | 57.28292 | -68.83586 | 34578 ft | 481 kts | 68° |
| 2026-05-08 14:53 | 57.30944 | -68.72360 | 34580 ft | 481 kts | 68° |
| 2026-05-08 14:54 | 57.33619 | -68.60985 | 34588 ft | 482 kts | 68° |
| 2026-05-08 14:54 | 57.36254 | -68.49717 | 34597 ft | 482 kts | 68° |
| 2026-05-08 14:55 | 57.38904 | -68.38325 | 34598 ft | 481 kts | 68° |
| 2026-05-08 14:55 | 57.41524 | -68.26982 | 34596 ft | 481 kts | 69° |
| 2026-05-08 14:56 | 57.44148 | -68.15550 | 34597 ft | 481 kts | 69° |
| 2026-05-08 14:56 | 57.46739 | -68.04218 | 34592 ft | 481 kts | 69° |
| 2026-05-08 14:57 | 57.49329 | -67.92838 | 34588 ft | 482 kts | 69° |
| 2026-05-08 14:57 | 57.51926 | -67.81371 | 34589 ft | 482 kts | 69° |
| 2026-05-08 14:58 | 57.54494 | -67.69965 | 34584 ft | 481 kts | 69° |
| 2026-05-08 14:58 | 57.57084 | -67.58415 | 34580 ft | 481 kts | 69° |
| 2026-05-08 14:59 | 57.59629 | -67.46998 | 34573 ft | 481 kts | 69° |
| 2026-05-08 14:59 | 57.63444 | -67.29752 | 34572 ft | 482 kts | 70° |
| 2026-05-08 15:00 | 57.65992 | -67.18142 | 34564 ft | 482 kts | 70° |
| 2026-05-08 15:00 | 57.68510 | -67.06622 | 34557 ft | 481 kts | 70° |
| 2026-05-08 15:01 | 57.70837 | -66.95016 | 34544 ft | 480 kts | 73° |
| 2026-05-08 15:01 | 57.72927 | -66.83131 | 34531 ft | 480 kts | 74° |
| 2026-05-08 15:02 | 57.74973 | -66.71352 | 34521 ft | 480 kts | 73° |
| 2026-05-08 15:02 | 57.77043 | -66.59480 | 34501 ft | 481 kts | 73° |
| 2026-05-08 15:03 | 57.79107 | -66.47577 | 34512 ft | 482 kts | 74° |
| 2026-05-08 15:03 | 57.81144 | -66.35650 | 34529 ft | 483 kts | 74° |
| 2026-05-08 15:04 | 57.83178 | -66.23664 | 34528 ft | 483 kts | 75° |
| 2026-05-08 15:04 | 57.85194 | -66.11732 | 34522 ft | 483 kts | 75° |
| 2026-05-08 15:05 | 57.87216 | -65.99697 | 34509 ft | 483 kts | 75° |
| 2026-05-08 15:05 | 57.89214 | -65.87741 | 34494 ft | 484 kts | 75° |
| 2026-05-08 15:06 | 57.91218 | -65.75665 | 34488 ft | 484 kts | 75° |
| 2026-05-08 15:06 | 57.93195 | -65.63670 | 34476 ft | 484 kts | 75° |
| 2026-05-08 15:07 | 57.95174 | -65.51578 | 34474 ft | 484 kts | 75° |
| 2026-05-08 15:07 | 57.97127 | -65.39568 | 34472 ft | 484 kts | 75° |
| 2026-05-08 15:08 | 57.98757 | -65.29475 | 34461 ft | 484 kts | 76° |
| 2026-05-08 15:08 | 58.01021 | -65.15336 | 34450 ft | 484 kts | 76° |
| 2026-05-08 15:09 | 58.02941 | -65.03269 | 34434 ft | 484 kts | 76° |
| 2026-05-08 15:09 | 58.04864 | -64.91106 | 34419 ft | 484 kts | 76° |
| 2026-05-08 15:10 | 58.06759 | -64.79034 | 34383 ft | 484 kts | 76° |
| 2026-05-08 15:10 | 58.08658 | -64.66848 | 34358 ft | 485 kts | 76° |
| 2026-05-08 15:11 | 58.10540 | -64.54708 | 34337 ft | 485 kts | 76° |
| 2026-05-08 15:11 | 58.12454 | -64.42466 | 34334 ft | 485 kts | 76° |
| 2026-05-08 15:12 | 58.14330 | -64.30283 | 34313 ft | 485 kts | 77° |
| 2026-05-08 15:12 | 58.16202 | -64.17928 | 34526 ft | 488 kts | 77° |
| 2026-05-08 15:13 | 58.17125 | -64.11805 | 34896 ft | 485 kts | 77° |
| 2026-05-08 15:13 | 58.18041 | -64.05707 | 35244 ft | 483 kts | 77° |
| 2026-05-08 15:13 | 58.18948 | -63.99638 | 35510 ft | 482 kts | 77° |
| 2026-05-08 15:13 | 58.19857 | -63.93542 | 35712 ft | 482 kts | 77° |
| 2026-05-08 15:14 | 58.20769 | -63.87389 | 35891 ft | 483 kts | 77° |
| 2026-05-08 15:14 | 58.21670 | -63.81290 | 36060 ft | 483 kts | 77° |
| 2026-05-08 15:14 | 58.22574 | -63.75150 | 36219 ft | 484 kts | 77° |
| 2026-05-08 15:14 | 58.23466 | -63.69058 | 36266 ft | 485 kts | 77° |
| 2026-05-08 15:15 | 58.25274 | -63.56662 | 36263 ft | 486 kts | 77° |
| 2026-05-08 15:15 | 58.27063 | -63.44310 | 36258 ft | 487 kts | 77° |
| 2026-05-08 15:16 | 58.28831 | -63.31993 | 36257 ft | 486 kts | 78° |
| 2026-05-08 15:16 | 58.30594 | -63.19597 | 36262 ft | 486 kts | 78° |
| 2026-05-08 15:17 | 58.32340 | -63.07239 | 36278 ft | 486 kts | 78° |
| 2026-05-08 15:17 | 58.34078 | -62.94839 | 36279 ft | 487 kts | 78° |
| 2026-05-08 15:18 | 58.35801 | -62.82456 | 36289 ft | 487 kts | 78° |
| 2026-05-08 15:18 | 58.37528 | -62.69957 | 36285 ft | 487 kts | 78° |
| 2026-05-08 15:19 | 58.39236 | -62.57484 | 36285 ft | 487 kts | 78° |
| 2026-05-08 15:19 | 58.40934 | -62.45005 | 36286 ft | 488 kts | 78° |
| 2026-05-08 15:20 | 58.42620 | -62.32491 | 36287 ft | 488 kts | 79° |
| 2026-05-08 15:20 | 58.44286 | -62.20016 | 36282 ft | 488 kts | 79° |
| 2026-05-08 15:21 | 58.45946 | -62.07479 | 36277 ft | 488 kts | 79° |
| 2026-05-08 15:21 | 58.47585 | -61.95005 | 36275 ft | 488 kts | 79° |
| 2026-05-08 15:22 | 58.49223 | -61.82447 | 36274 ft | 488 kts | 80° |
| 2026-05-08 15:22 | 58.50842 | -61.69934 | 36274 ft | 488 kts | 80° |
| 2026-05-08 15:23 | 58.52459 | -61.57321 | 36269 ft | 488 kts | 80° |
| 2026-05-08 15:23 | 58.54059 | -61.44741 | 36262 ft | 488 kts | 80° |
| 2026-05-08 15:24 | 58.55647 | -61.32147 | 36259 ft | 487 kts | 81° |
| 2026-05-08 15:24 | 58.57213 | -61.19593 | 36255 ft | 486 kts | 81° |
| 2026-05-08 15:25 | 58.58767 | -61.07040 | 36260 ft | 487 kts | 81° |
| 2026-05-08 15:25 | 58.60321 | -60.94390 | 36256 ft | 487 kts | 81° |
| 2026-05-08 15:26 | 58.61861 | -60.81754 | 36264 ft | 487 kts | 81° |
| 2026-05-08 15:26 | 58.63379 | -60.69208 | 36258 ft | 487 kts | 81° |
| 2026-05-08 15:27 | 58.64897 | -60.56519 | 36253 ft | 486 kts | 82° |
| 2026-05-08 15:27 | 58.66478 | -60.43972 | 36251 ft | 488 kts | 80° |
| 2026-05-08 15:28 | 58.68173 | -60.31366 | 36250 ft | 488 kts | 81° |
| 2026-05-08 15:28 | 58.69848 | -60.18793 | 36239 ft | 488 kts | 81° |
| 2026-05-08 15:29 | 58.71504 | -60.06179 | 36236 ft | 487 kts | 81° |
| 2026-05-08 15:29 | 58.73146 | -59.93553 | 36238 ft | 488 kts | 81° |
| 2026-05-08 15:30 | 58.74782 | -59.80859 | 36240 ft | 488 kts | 81° |
| 2026-05-08 15:30 | 58.76397 | -59.68231 | 36229 ft | 489 kts | 81° |
| 2026-05-08 15:31 | 58.78007 | -59.55521 | 36230 ft | 488 kts | 82° |
| 2026-05-08 15:31 | 58.79599 | -59.42842 | 36233 ft | 488 kts | 82° |
| 2026-05-08 15:32 | 58.81178 | -59.30162 | 36235 ft | 489 kts | 83° |
| 2026-05-08 15:32 | 58.82743 | -59.17473 | 36241 ft | 490 kts | 83° |
| 2026-05-08 15:33 | 58.84302 | -59.04721 | 36250 ft | 488 kts | 83° |
| 2026-05-08 15:33 | 58.85856 | -58.91907 | 36263 ft | 488 kts | 83° |
| 2026-05-08 15:34 | 58.87381 | -58.79219 | 36266 ft | 489 kts | 83° |
| 2026-05-08 15:34 | 58.88903 | -58.66419 | 36274 ft | 489 kts | 83° |
| 2026-05-08 15:35 | 58.90403 | -58.53731 | 36265 ft | 488 kts | 83° |
| 2026-05-08 15:35 | 58.91902 | -58.40937 | 36279 ft | 489 kts | 83° |
| 2026-05-08 15:36 | 58.93389 | -58.28122 | 36285 ft | 489 kts | 84° |
| 2026-05-08 15:36 | 58.94865 | -58.15300 | 36276 ft | 490 kts | 84° |
| 2026-05-08 15:37 | 58.96344 | -58.02467 | 36281 ft | 492 kts | 83° |
| 2026-05-08 15:37 | 58.98228 | -57.89783 | 36279 ft | 496 kts | 79° |
| 2026-05-08 15:38 | 59.00294 | -57.77087 | 36278 ft | 496 kts | 79° |
| 2026-05-08 15:38 | 59.02370 | -57.64302 | 36296 ft | 496 kts | 79° |
| 2026-05-08 15:39 | 59.04418 | -57.51573 | 36300 ft | 497 kts | 79° |
| 2026-05-08 15:39 | 59.06454 | -57.38800 | 36302 ft | 498 kts | 79° |
| 2026-05-08 15:40 | 59.08481 | -57.25980 | 36313 ft | 498 kts | 80° |
| 2026-05-08 15:40 | 59.10498 | -57.13155 | 36314 ft | 497 kts | 80° |
| 2026-05-08 15:41 | 59.12518 | -57.00394 | 36320 ft | 498 kts | 81° |
| 2026-05-08 15:41 | 59.14534 | -56.87487 | 36341 ft | 498 kts | 81° |
| 2026-05-08 15:42 | 59.16513 | -56.74632 | 36339 ft | 498 kts | 81° |
| 2026-05-08 15:42 | 59.18485 | -56.61718 | 36335 ft | 498 kts | 81° |
| 2026-05-08 15:43 | 59.20430 | -56.48847 | 36351 ft | 498 kts | 81° |
| 2026-05-08 15:43 | 59.22375 | -56.35891 | 36346 ft | 499 kts | 81° |
| 2026-05-08 15:44 | 59.24305 | -56.22944 | 36360 ft | 498 kts | 82° |
| 2026-05-08 15:44 | 59.26207 | -56.10035 | 36362 ft | 498 kts | 82° |
| 2026-05-08 15:45 | 59.28119 | -55.96991 | 36380 ft | 499 kts | 82° |
| 2026-05-08 15:45 | 59.30006 | -55.83993 | 36389 ft | 500 kts | 82° |
| 2026-05-08 15:46 | 59.31892 | -55.70925 | 36387 ft | 502 kts | 82° |
| 2026-05-08 15:46 | 59.33756 | -55.57903 | 36408 ft | 502 kts | 82° |
| 2026-05-08 15:47 | 59.35622 | -55.44722 | 36401 ft | 506 kts | 82° |
| 2026-05-08 15:47 | 59.37482 | -55.31422 | 36228 ft | 511 kts | 83° |
| 2026-05-08 15:48 | 59.39341 | -55.18024 | 36374 ft | 512 kts | 83° |
| 2026-05-08 15:48 | 59.40272 | -55.11286 | 36406 ft | 513 kts | 83° |
| 2026-05-08 15:49 | 59.41800 | -54.97741 | 36412 ft | 506 kts | 90° |
| 2026-05-08 15:49 | 59.42194 | -54.84217 | 36429 ft | 494 kts | 100° |
| 2026-05-08 15:50 | 59.42542 | -54.70610 | 36426 ft | 507 kts | 89° |
| 2026-05-08 15:50 | 59.44082 | -54.57115 | 36435 ft | 514 kts | 82° |
| 2026-05-08 15:51 | 59.45934 | -54.43626 | 36434 ft | 514 kts | 82° |
| 2026-05-08 15:51 | 59.47766 | -54.30072 | 36439 ft | 514 kts | 83° |
| 2026-05-08 15:52 | 59.49551 | -54.16532 | 36446 ft | 513 kts | 84° |
| 2026-05-08 15:52 | 59.51311 | -54.02980 | 36451 ft | 513 kts | 83° |
| 2026-05-08 15:53 | 59.53058 | -53.89423 | 36467 ft | 514 kts | 84° |
| 2026-05-08 15:53 | 59.54796 | -53.75822 | 36457 ft | 514 kts | 84° |
| 2026-05-08 15:54 | 59.56511 | -53.62236 | 36464 ft | 514 kts | 83° |
| 2026-05-08 15:54 | 59.58225 | -53.48543 | 36483 ft | 515 kts | 84° |
| 2026-05-08 15:55 | 59.59921 | -53.34844 | 36486 ft | 516 kts | 84° |
| 2026-05-08 15:55 | 59.62437 | -53.14310 | 36505 ft | 517 kts | 85° |
| 2026-05-08 15:56 | 59.64099 | -53.00583 | 36504 ft | 517 kts | 85° |
| 2026-05-08 15:56 | 59.65749 | -52.86803 | 36512 ft | 518 kts | 85° |
| 2026-05-08 15:57 | 59.67389 | -52.73009 | 36526 ft | 519 kts | 85° |
| 2026-05-08 15:57 | 59.69019 | -52.59117 | 36545 ft | 520 kts | 85° |
| 2026-05-08 15:58 | 59.70639 | -52.45234 | 36530 ft | 521 kts | 85° |
| 2026-05-08 15:58 | 59.72253 | -52.31246 | 36540 ft | 522 kts | 86° |
| 2026-05-08 15:59 | 59.73842 | -52.17323 | 36547 ft | 522 kts | 85° |
| 2026-05-08 15:59 | 59.75426 | -52.03274 | 36558 ft | 523 kts | 86° |
| 2026-05-08 16:00 | 59.76984 | -51.89321 | 36557 ft | 523 kts | 86° |
| 2026-05-08 16:00 | 59.78538 | -51.75277 | 36569 ft | 524 kts | 86° |
| 2026-05-08 16:01 | 59.80090 | -51.61092 | 36588 ft | 525 kts | 85° |
| 2026-05-08 16:01 | 59.81628 | -51.46893 | 36598 ft | 526 kts | 86° |
| 2026-05-08 16:02 | 59.83137 | -51.32805 | 36600 ft | 527 kts | 87° |
| 2026-05-08 16:02 | 59.84646 | -51.18578 | 36619 ft | 528 kts | 86° |
| 2026-05-08 16:03 | 59.86143 | -51.04260 | 36631 ft | 530 kts | 87° |
| 2026-05-08 16:03 | 59.87624 | -50.89959 | 36634 ft | 531 kts | 86° |
| 2026-05-08 16:04 | 59.89090 | -50.75647 | 36634 ft | 532 kts | 86° |
| 2026-05-08 16:04 | 59.90552 | -50.61227 | 36657 ft | 534 kts | 86° |
| 2026-05-08 16:05 | 59.92011 | -50.46710 | 36648 ft | 535 kts | 86° |
| 2026-05-08 16:05 | 59.93447 | -50.32184 | 36653 ft | 537 kts | 87° |
| 2026-05-08 16:06 | 59.94872 | -50.17677 | 36675 ft | 538 kts | 87° |
| 2026-05-08 16:06 | 59.96292 | -50.03008 | 36690 ft | 539 kts | 87° |
| 2026-05-08 16:07 | 59.98033 | -49.88397 | 36697 ft | 547 kts | 82° |
| 2026-05-08 16:07 | 60.00070 | -49.73831 | 36711 ft | 549 kts | 81° |
| 2026-05-08 16:08 | 60.02126 | -49.59137 | 36716 ft | 551 kts | 81° |
| 2026-05-08 16:08 | 60.04157 | -49.44465 | 36719 ft | 553 kts | 81° |
| 2026-05-08 16:09 | 60.06179 | -49.29636 | 36732 ft | 554 kts | 82° |
| 2026-05-08 16:09 | 60.08181 | -49.14789 | 36752 ft | 554 kts | 81° |
| 2026-05-08 16:10 | 60.10153 | -49.00006 | 36763 ft | 555 kts | 82° |
| 2026-05-08 16:10 | 60.12156 | -48.85094 | 36764 ft | 555 kts | 81° |
| 2026-05-08 16:11 | 60.14148 | -48.70108 | 36783 ft | 554 kts | 81° |
| 2026-05-08 16:11 | 60.16082 | -48.55247 | 36789 ft | 554 kts | 80° |
| 2026-05-08 16:12 | 60.17987 | -48.40400 | 36807 ft | 554 kts | 80° |
| 2026-05-08 16:12 | 60.19894 | -48.25399 | 36823 ft | 554 kts | 81° |
| 2026-05-08 16:13 | 60.21772 | -48.10492 | 36837 ft | 553 kts | 81° |
| 2026-05-08 16:13 | 60.23633 | -47.95590 | 36839 ft | 553 kts | 81° |
| 2026-05-08 16:14 | 60.25480 | -47.80582 | 36868 ft | 553 kts | 81° |
| 2026-05-08 16:14 | 60.27301 | -47.65669 | 36871 ft | 554 kts | 81° |
| 2026-05-08 16:15 | 60.29126 | -47.50597 | 36884 ft | 554 kts | 80° |
| 2026-05-08 16:15 | 60.30922 | -47.35576 | 36897 ft | 554 kts | 79° |
| 2026-05-08 16:16 | 60.32694 | -47.20587 | 36925 ft | 554 kts | 80° |
| 2026-05-08 16:16 | 60.34470 | -47.05410 | 36933 ft | 553 kts | 81° |
| 2026-05-08 16:17 | 60.35916 | -46.92927 | 36938 ft | 554 kts | 80° |
| 2026-05-08 16:17 | 60.37939 | -46.75310 | 36960 ft | 553 kts | 81° |
| 2026-05-08 16:18 | 60.39640 | -46.60273 | 36969 ft | 554 kts | 80° |
| 2026-05-08 16:18 | 60.41345 | -46.45066 | 36974 ft | 554 kts | 80° |
| 2026-05-08 16:19 | 60.43021 | -46.29976 | 36987 ft | 554 kts | 81° |
| 2026-05-08 16:19 | 60.44688 | -46.14730 | 36998 ft | 554 kts | 80° |
| 2026-05-08 16:20 | 60.46321 | -45.99633 | 37002 ft | 554 kts | 80° |
| 2026-05-08 16:20 | 60.47953 | -45.84421 | 37005 ft | 554 kts | 80° |
| 2026-05-08 16:21 | 60.49567 | -45.69207 | 37008 ft | 554 kts | 80° |
| 2026-05-08 16:21 | 60.51150 | -45.53992 | 37017 ft | 554 kts | 79° |
| 2026-05-08 16:22 | 60.52736 | -45.38696 | 37343 ft | 555 kts | 80° |
| 2026-05-08 16:22 | 60.53520 | -45.31032 | 37131 ft | 559 kts | 81° |
| 2026-05-08 16:22 | 60.54308 | -45.23311 | 37069 ft | 558 kts | 81° |
| 2026-05-08 16:23 | 60.55823 | -45.08100 | 37030 ft | 548 kts | 81° |
| 2026-05-08 16:23 | 60.57312 | -44.93136 | 37022 ft | 541 kts | 79° |
| 2026-05-08 16:24 | 60.58812 | -44.78135 | 37022 ft | 541 kts | 80° |
| 2026-05-08 16:24 | 60.60272 | -44.63171 | 37032 ft | 542 kts | 80° |
| 2026-05-08 16:25 | 60.61716 | -44.48163 | 37045 ft | 543 kts | 79° |
| 2026-05-08 16:25 | 60.63127 | -44.33217 | 37055 ft | 543 kts | 80° |
| 2026-05-08 16:26 | 60.64549 | -44.18028 | 37055 ft | 544 kts | 80° |
| 2026-05-08 16:26 | 60.65935 | -44.03019 | 37068 ft | 544 kts | 80° |
| 2026-05-08 16:27 | 60.67312 | -43.87910 | 37075 ft | 544 kts | 81° |
| 2026-05-08 16:27 | 60.68668 | -43.72824 | 37088 ft | 545 kts | 80° |
| 2026-05-08 16:28 | 60.70019 | -43.57637 | 37099 ft | 545 kts | 79° |
| 2026-05-08 16:28 | 60.71371 | -43.42412 | 37119 ft | 545 kts | 79° |
| 2026-05-08 16:29 | 60.72679 | -43.27283 | 37130 ft | 544 kts | 81° |
| 2026-05-08 16:29 | 60.73960 | -43.12084 | 37136 ft | 546 kts | 81° |
| 2026-05-08 16:30 | 60.75235 | -42.96738 | 37121 ft | 554 kts | 82° |
| 2026-05-08 16:30 | 60.76513 | -42.81208 | 37134 ft | 556 kts | 81° |
| 2026-05-08 16:31 | 60.77787 | -42.65656 | 37154 ft | 559 kts | 81° |
| 2026-05-08 16:31 | 60.79037 | -42.50081 | 37158 ft | 557 kts | 80° |
| 2026-05-08 16:32 | 60.80271 | -42.34447 | 37158 ft | 555 kts | 80° |
| 2026-05-08 16:32 | 60.81485 | -42.19000 | 37159 ft | 553 kts | 81° |
| 2026-05-08 16:33 | 60.82670 | -42.03525 | 37160 ft | 551 kts | 80° |
| 2026-05-08 16:33 | 60.83840 | -41.88046 | 37162 ft | 550 kts | 79° |
| 2026-05-08 16:34 | 60.84987 | -41.72650 | 37164 ft | 549 kts | 79° |
| 2026-05-08 16:34 | 60.86118 | -41.57238 | 37163 ft | 549 kts | 80° |
| 2026-05-08 16:35 | 60.87229 | -41.41817 | 37163 ft | 549 kts | 79° |
| 2026-05-08 16:35 | 60.88319 | -41.26407 | 37162 ft | 548 kts | 81° |
| 2026-05-08 16:36 | 60.89391 | -41.10982 | 37165 ft | 548 kts | 80° |
| 2026-05-08 16:36 | 60.90442 | -40.95538 | 37166 ft | 547 kts | 80° |
| 2026-05-08 16:37 | 60.91483 | -40.80143 | 37169 ft | 547 kts | 79° |
| 2026-05-08 16:37 | 60.92500 | -40.64739 | 37171 ft | 547 kts | 80° |
| 2026-05-08 16:38 | 60.93509 | -40.49231 | 37176 ft | 547 kts | 80° |
| 2026-05-08 16:38 | 60.94503 | -40.33698 | 37180 ft | 547 kts | 81° |
| 2026-05-08 16:39 | 60.95478 | -40.18214 | 37182 ft | 546 kts | 80° |
| 2026-05-08 16:39 | 60.96425 | -40.02803 | 37187 ft | 546 kts | 80° |
| 2026-05-08 16:40 | 60.97116 | -39.87273 | 37195 ft | 546 kts | 83° |
| 2026-05-08 16:40 | 60.97642 | -39.71740 | 37206 ft | 546 kts | 83° |
| 2026-05-08 16:41 | 60.98152 | -39.56286 | 37205 ft | 546 kts | 83° |
| 2026-05-08 16:42 | 60.98911 | -39.32957 | 37200 ft | 545 kts | 83° |
| 2026-05-08 16:42 | 60.99402 | -39.17498 | 37204 ft | 544 kts | 83° |
| 2026-05-08 16:43 | 60.99868 | -39.01936 | 37208 ft | 543 kts | 83° |
| 2026-05-08 16:43 | 61.00318 | -38.86447 | 37210 ft | 542 kts | 82° |
| 2026-05-08 16:44 | 61.00747 | -38.71094 | 37212 ft | 541 kts | 83° |
| 2026-05-08 16:44 | 61.01168 | -38.55679 | 37219 ft | 540 kts | 83° |
| 2026-05-08 16:45 | 61.01563 | -38.40249 | 37217 ft | 540 kts | 83° |
| 2026-05-08 16:45 | 61.01938 | -38.25089 | 37216 ft | 539 kts | 84° |
| 2026-05-08 16:46 | 61.02293 | -38.09815 | 37232 ft | 538 kts | 84° |
| 2026-05-08 16:46 | 61.02634 | -37.94466 | 37249 ft | 537 kts | 83° |
| 2026-05-08 16:46 | 61.02795 | -37.86792 | 36962 ft | 535 kts | 83° |
| 2026-05-08 16:47 | 61.02951 | -37.79256 | 37160 ft | 532 kts | 84° |
| 2026-05-08 16:47 | 61.03257 | -37.64076 | 37234 ft | 532 kts | 83° |
| 2026-05-08 16:48 | 61.03550 | -37.48818 | 37239 ft | 533 kts | 84° |
| 2026-05-08 16:48 | 61.03820 | -37.33584 | 37245 ft | 534 kts | 84° |
| 2026-05-08 16:49 | 61.04072 | -37.18365 | 37254 ft | 535 kts | 84° |
| 2026-05-08 16:49 | 61.04305 | -37.03130 | 37263 ft | 535 kts | 84° |
| 2026-05-08 16:50 | 61.04525 | -36.87864 | 37270 ft | 535 kts | 83° |
| 2026-05-08 16:50 | 61.04726 | -36.72564 | 37273 ft | 536 kts | 84° |
| 2026-05-08 16:51 | 61.04916 | -36.57200 | 37279 ft | 536 kts | 83° |
| 2026-05-08 16:51 | 61.05085 | -36.41888 | 37278 ft | 536 kts | 83° |
| 2026-05-08 16:52 | 61.05235 | -36.26609 | 37283 ft | 535 kts | 83° |
| 2026-05-08 16:52 | 61.05364 | -36.11292 | 37286 ft | 535 kts | 83° |
| 2026-05-08 16:53 | 61.05537 | -35.88382 | 37291 ft | 534 kts | 83° |
| 2026-05-08 16:53 | 61.05630 | -35.73166 | 37299 ft | 534 kts | 83° |
| 2026-05-08 16:54 | 61.05701 | -35.57950 | 37306 ft | 533 kts | 83° |
| 2026-05-08 16:54 | 61.05758 | -35.42754 | 37315 ft | 533 kts | 83° |
| 2026-05-08 16:55 | 61.05797 | -35.27553 | 37318 ft | 532 kts | 83° |
| 2026-05-08 16:55 | 61.05816 | -35.12356 | 37323 ft | 531 kts | 83° |
| 2026-05-08 16:56 | 61.05824 | -34.97184 | 37321 ft | 530 kts | 83° |
| 2026-05-08 16:56 | 61.05813 | -34.82018 | 37316 ft | 529 kts | 83° |
| 2026-05-08 16:57 | 61.05783 | -34.66953 | 37317 ft | 529 kts | 83° |
| 2026-05-08 16:57 | 61.05735 | -34.51862 | 37331 ft | 528 kts | 83° |
| 2026-05-08 16:58 | 61.05675 | -34.36723 | 37330 ft | 527 kts | 83° |
| 2026-05-08 16:58 | 61.05595 | -34.21641 | 37340 ft | 527 kts | 84° |
| 2026-05-08 16:59 | 61.05499 | -34.06651 | 37349 ft | 526 kts | 84° |
| 2026-05-08 16:59 | 61.05385 | -33.91621 | 37345 ft | 525 kts | 84° |
| 2026-05-08 17:00 | 61.05258 | -33.76601 | 37342 ft | 524 kts | 84° |
| 2026-05-08 17:00 | 61.05114 | -33.61633 | 37338 ft | 524 kts | 84° |
| 2026-05-08 17:01 | 61.04954 | -33.46767 | 37335 ft | 523 kts | 84° |
| 2026-05-08 17:01 | 61.04776 | -33.31788 | 37351 ft | 522 kts | 85° |
| 2026-05-08 17:02 | 61.04583 | -33.16887 | 37351 ft | 521 kts | 86° |
| 2026-05-08 17:02 | 61.04371 | -33.02076 | 37362 ft | 519 kts | 86° |
| 2026-05-08 17:03 | 61.04145 | -32.87219 | 37376 ft | 519 kts | 86° |
| 2026-05-08 17:03 | 61.03901 | -32.72392 | 37381 ft | 518 kts | 85° |
| 2026-05-08 17:04 | 61.03643 | -32.57581 | 37383 ft | 518 kts | 85° |
| 2026-05-08 17:04 | 61.03370 | -32.42843 | 37389 ft | 517 kts | 85° |
| 2026-05-08 17:05 | 61.03083 | -32.28025 | 37388 ft | 517 kts | 86° |
| 2026-05-08 17:05 | 61.02772 | -32.13226 | 37392 ft | 517 kts | 86° |
| 2026-05-08 17:06 | 61.02452 | -31.98494 | 37387 ft | 516 kts | 86° |
| 2026-05-08 17:06 | 61.02117 | -31.83825 | 37386 ft | 516 kts | 86° |
| 2026-05-08 17:07 | 61.01763 | -31.69040 | 37387 ft | 516 kts | 86° |
| 2026-05-08 17:07 | 61.01397 | -31.54417 | 37395 ft | 516 kts | 86° |
| 2026-05-08 17:08 | 61.01014 | -31.39684 | 37394 ft | 516 kts | 86° |
| 2026-05-08 17:08 | 61.00612 | -31.24963 | 37395 ft | 516 kts | 86° |
| 2026-05-08 17:09 | 61.00196 | -31.10281 | 37416 ft | 516 kts | 86° |
| 2026-05-08 17:09 | 60.99763 | -30.95602 | 37415 ft | 515 kts | 86° |
| 2026-05-08 17:10 | 60.99321 | -30.80983 | 37399 ft | 515 kts | 86° |
| 2026-05-08 17:10 | 60.98859 | -30.66296 | 37396 ft | 514 kts | 86° |
| 2026-05-08 17:11 | 60.98384 | -30.51624 | 37392 ft | 514 kts | 86° |
| 2026-05-08 17:11 | 60.97899 | -30.37049 | 37386 ft | 513 kts | 86° |
| 2026-05-08 17:12 | 60.97397 | -30.22428 | 37385 ft | 512 kts | 87° |
| 2026-05-08 17:12 | 60.96873 | -30.07939 | 37379 ft | 512 kts | 88° |
| 2026-05-08 17:13 | 60.95861 | -29.93357 | 37365 ft | 518 kts | 95° |
| 2026-05-08 17:13 | 60.94293 | -29.78889 | 37372 ft | 519 kts | 96° |
| 2026-05-08 17:14 | 60.92686 | -29.64447 | 37367 ft | 518 kts | 96° |
| 2026-05-08 17:14 | 60.91092 | -29.50095 | 37381 ft | 518 kts | 96° |
| 2026-05-08 17:15 | 60.89491 | -29.35720 | 37389 ft | 520 kts | 96° |
| 2026-05-08 17:15 | 60.87862 | -29.21276 | 37397 ft | 521 kts | 96° |
| 2026-05-08 17:16 | 60.86218 | -29.06834 | 37389 ft | 522 kts | 97° |
| 2026-05-08 17:16 | 60.84551 | -28.92380 | 37409 ft | 523 kts | 96° |
| 2026-05-08 17:17 | 60.82869 | -28.77917 | 37403 ft | 524 kts | 97° |
| 2026-05-08 17:17 | 60.81172 | -28.63509 | 37409 ft | 525 kts | 97° |
| 2026-05-08 17:18 | 60.79456 | -28.49064 | 37407 ft | 525 kts | 97° |
| 2026-05-08 17:18 | 60.77726 | -28.34644 | 37402 ft | 525 kts | 98° |
| 2026-05-08 17:19 | 60.75975 | -28.20230 | 37410 ft | 524 kts | 98° |
| 2026-05-08 17:19 | 60.74205 | -28.05800 | 37411 ft | 523 kts | 98° |
| 2026-05-08 17:20 | 60.72429 | -27.91445 | 37408 ft | 522 kts | 98° |
| 2026-05-08 17:20 | 60.70645 | -27.77180 | 37419 ft | 521 kts | 98° |
| 2026-05-08 17:21 | 60.68847 | -27.62911 | 37415 ft | 521 kts | 98° |
| 2026-05-08 17:21 | 60.67027 | -27.48622 | 37407 ft | 521 kts | 98° |
| 2026-05-08 17:22 | 60.65209 | -27.34474 | 37403 ft | 520 kts | 98° |
| 2026-05-08 17:22 | 60.63364 | -27.20227 | 37402 ft | 520 kts | 98° |
| 2026-05-08 17:23 | 60.61518 | -27.06111 | 37399 ft | 519 kts | 99° |
| 2026-05-08 17:23 | 60.59647 | -26.91955 | 37401 ft | 519 kts | 99° |
| 2026-05-08 17:24 | 60.57778 | -26.77936 | 37402 ft | 519 kts | 98° |
| 2026-05-08 17:24 | 60.55880 | -26.63828 | 37408 ft | 518 kts | 98° |
| 2026-05-08 17:25 | 60.53972 | -26.49770 | 37407 ft | 518 kts | 98° |
| 2026-05-08 17:25 | 60.52048 | -26.35728 | 37411 ft | 517 kts | 98° |
| 2026-05-08 17:26 | 60.50108 | -26.21697 | 37413 ft | 516 kts | 99° |
| 2026-05-08 17:26 | 60.48174 | -26.07817 | 37415 ft | 516 kts | 99° |
| 2026-05-08 17:27 | 60.46216 | -25.93885 | 37410 ft | 515 kts | 99° |
| 2026-05-08 17:27 | 60.44256 | -25.80059 | 37411 ft | 515 kts | 99° |
| 2026-05-08 17:28 | 60.42267 | -25.66147 | 37402 ft | 514 kts | 99° |
| 2026-05-08 17:28 | 60.40286 | -25.52416 | 37413 ft | 514 kts | 99° |
| 2026-05-08 17:29 | 60.38279 | -25.38609 | 37405 ft | 514 kts | 99° |
| 2026-05-08 17:29 | 60.36256 | -25.24801 | 37405 ft | 514 kts | 99° |
| 2026-05-08 17:30 | 60.34219 | -25.11014 | 37405 ft | 514 kts | 99° |
| 2026-05-08 17:30 | 60.32180 | -24.97330 | 37397 ft | 513 kts | 99° |
| 2026-05-08 17:31 | 60.30117 | -24.83605 | 37388 ft | 513 kts | 99° |
| 2026-05-08 17:31 | 60.28037 | -24.69878 | 37394 ft | 513 kts | 99° |
| 2026-05-08 17:32 | 60.25950 | -24.56204 | 37386 ft | 513 kts | 99° |
| 2026-05-08 17:32 | 60.23846 | -24.42550 | 37376 ft | 513 kts | 99° |
| 2026-05-08 17:33 | 60.21744 | -24.29000 | 37369 ft | 512 kts | 101° |
| 2026-05-08 17:33 | 60.19618 | -24.15379 | 37376 ft | 512 kts | 101° |
| 2026-05-08 17:34 | 60.17467 | -24.01728 | 37374 ft | 512 kts | 101° |
| 2026-05-08 17:34 | 60.15326 | -23.88248 | 37380 ft | 512 kts | 101° |
| 2026-05-08 17:35 | 60.14236 | -23.81424 | 37596 ft | 513 kts | 101° |
| 2026-05-08 17:35 | 60.13148 | -23.74637 | 37495 ft | 516 kts | 100° |
| 2026-05-08 17:35 | 60.10948 | -23.61004 | 37409 ft | 517 kts | 100° |
| 2026-05-08 17:36 | 60.08730 | -23.47368 | 37391 ft | 515 kts | 101° |
| 2026-05-08 17:36 | 60.06516 | -23.33885 | 37390 ft | 513 kts | 102° |
| 2026-05-08 17:37 | 60.04310 | -23.20400 | 37386 ft | 509 kts | 101° |
| 2026-05-08 17:37 | 60.02111 | -23.07087 | 37385 ft | 508 kts | 101° |
| 2026-05-08 17:38 | 59.99881 | -22.93753 | 37379 ft | 507 kts | 102° |
| 2026-05-08 17:38 | 59.97646 | -22.80510 | 37358 ft | 506 kts | 102° |
| 2026-05-08 17:39 | 59.95392 | -22.67256 | 37363 ft | 507 kts | 102° |
| 2026-05-08 17:39 | 59.93126 | -22.54040 | 37355 ft | 506 kts | 102° |
| 2026-05-08 17:40 | 59.90850 | -22.40831 | 37352 ft | 506 kts | 102° |
| 2026-05-08 17:40 | 59.88562 | -22.27738 | 37340 ft | 505 kts | 103° |
| 2026-05-08 17:41 | 59.86225 | -22.14553 | 37343 ft | 505 kts | 103° |
| 2026-05-08 17:41 | 59.83913 | -22.01492 | 37343 ft | 504 kts | 103° |
| 2026-05-08 17:42 | 59.81586 | -21.88384 | 37340 ft | 506 kts | 103° |
| 2026-05-08 17:42 | 59.79246 | -21.75281 | 37340 ft | 506 kts | 103° |
| 2026-05-08 17:43 | 59.76891 | -21.62190 | 37334 ft | 505 kts | 103° |
| 2026-05-08 17:43 | 59.74524 | -21.49144 | 37333 ft | 505 kts | 103° |
| 2026-05-08 17:44 | 59.72156 | -21.36162 | 37325 ft | 505 kts | 104° |
| 2026-05-08 17:44 | 59.69768 | -21.23151 | 37340 ft | 504 kts | 105° |
| 2026-05-08 17:45 | 59.67387 | -21.10252 | 37330 ft | 503 kts | 105° |
| 2026-05-08 17:45 | 59.64984 | -20.97342 | 37339 ft | 502 kts | 105° |
| 2026-05-08 17:46 | 59.62580 | -20.84504 | 37351 ft | 502 kts | 105° |
| 2026-05-08 17:46 | 59.60156 | -20.71645 | 37350 ft | 502 kts | 105° |
| 2026-05-08 17:47 | 59.57720 | -20.58802 | 37352 ft | 502 kts | 105° |
| 2026-05-08 17:47 | 59.55682 | -20.48124 | 37347 ft | 502 kts | 105° |
| 2026-05-08 17:48 | 59.52806 | -20.33134 | 37346 ft | 502 kts | 106° |
| 2026-05-08 17:48 | 59.50348 | -20.20380 | 37342 ft | 502 kts | 106° |
| 2026-05-08 17:49 | 59.47821 | -20.07699 | 37340 ft | 503 kts | 109° |
| 2026-05-08 17:49 | 59.44701 | -19.95407 | 37338 ft | 507 kts | 115° |
| 2026-05-08 17:50 | 59.41063 | -19.83608 | 37337 ft | 507 kts | 117° |
| 2026-05-08 17:50 | 59.37410 | -19.71891 | 37332 ft | 507 kts | 117° |
| 2026-05-08 17:51 | 59.33737 | -19.60125 | 37324 ft | 507 kts | 117° |
| 2026-05-08 17:51 | 59.30058 | -19.48391 | 37319 ft | 508 kts | 117° |
| 2026-05-08 17:52 | 59.26382 | -19.36725 | 37316 ft | 508 kts | 117° |
| 2026-05-08 17:53 | 59.20823 | -19.19151 | 37303 ft | 508 kts | 118° |
| 2026-05-08 17:53 | 59.17111 | -19.07500 | 37305 ft | 508 kts | 117° |
| 2026-05-08 17:54 | 59.13407 | -18.95937 | 37299 ft | 509 kts | 118° |
| 2026-05-08 17:54 | 59.09644 | -18.84254 | 37300 ft | 508 kts | 118° |
| 2026-05-08 17:55 | 59.05895 | -18.72672 | 37313 ft | 508 kts | 118° |
| 2026-05-08 17:55 | 59.02168 | -18.61215 | 37303 ft | 508 kts | 118° |
| 2026-05-08 17:56 | 58.98384 | -18.49643 | 37303 ft | 507 kts | 118° |
| 2026-05-08 17:56 | 58.94625 | -18.38201 | 37311 ft | 507 kts | 118° |
| 2026-05-08 17:57 | 58.90863 | -18.26785 | 37299 ft | 506 kts | 119° |
| 2026-05-08 17:57 | 58.87075 | -18.15408 | 37296 ft | 506 kts | 119° |
| 2026-05-08 17:58 | 58.83255 | -18.04031 | 37305 ft | 505 kts | 119° |
| 2026-05-08 17:58 | 58.79475 | -17.92775 | 37306 ft | 505 kts | 119° |
| 2026-05-08 17:59 | 58.75660 | -17.81451 | 37300 ft | 505 kts | 120° |
| 2026-05-08 17:59 | 58.71844 | -17.70163 | 37297 ft | 505 kts | 120° |
| 2026-05-08 18:00 | 58.68026 | -17.58931 | 37303 ft | 505 kts | 120° |
| 2026-05-08 18:00 | 58.62269 | -17.42099 | 37300 ft | 505 kts | 120° |
| 2026-05-08 18:01 | 58.58418 | -17.30892 | 37303 ft | 505 kts | 120° |
| 2026-05-08 18:01 | 58.54589 | -17.19778 | 37299 ft | 504 kts | 120° |
| 2026-05-08 18:02 | 58.51371 | -17.10480 | 37297 ft | 504 kts | 121° |
| 2026-05-08 18:02 | 58.46865 | -16.97547 | 37291 ft | 504 kts | 121° |
| 2026-05-08 18:03 | 58.42976 | -16.86447 | 37292 ft | 504 kts | 121° |
| 2026-05-08 18:03 | 58.39084 | -16.75389 | 37297 ft | 504 kts | 121° |
| 2026-05-08 18:04 | 58.35184 | -16.64365 | 37296 ft | 503 kts | 121° |
| 2026-05-08 18:04 | 58.31295 | -16.53421 | 37288 ft | 504 kts | 121° |
| 2026-05-08 18:05 | 58.27380 | -16.42451 | 37292 ft | 503 kts | 121° |
| 2026-05-08 18:05 | 58.23438 | -16.31449 | 37282 ft | 503 kts | 122° |
| 2026-05-08 18:06 | 58.19526 | -16.20564 | 37291 ft | 504 kts | 123° |
| 2026-05-08 18:06 | 58.15582 | -16.09652 | 37285 ft | 503 kts | 123° |
| 2026-05-08 18:07 | 58.11648 | -15.98824 | 37287 ft | 504 kts | 123° |
| 2026-05-08 18:07 | 58.07685 | -15.87968 | 37284 ft | 503 kts | 123° |
| 2026-05-08 18:08 | 58.03718 | -15.77161 | 37269 ft | 504 kts | 123° |
| 2026-05-08 18:08 | 57.99741 | -15.66369 | 37278 ft | 504 kts | 123° |
| 2026-05-08 18:09 | 57.95733 | -15.55542 | 37276 ft | 504 kts | 123° |
| 2026-05-08 18:09 | 57.91738 | -15.44795 | 37270 ft | 510 kts | 123° |
| 2026-05-08 18:10 | 57.87640 | -15.33882 | 37272 ft | 516 kts | 124° |
| 2026-05-08 18:10 | 57.83487 | -15.22921 | 37250 ft | 514 kts | 124° |
| 2026-05-08 18:11 | 57.79416 | -15.12173 | 37274 ft | 506 kts | 125° |
| 2026-05-08 18:11 | 57.75346 | -15.01437 | 37269 ft | 509 kts | 125° |
| 2026-05-08 18:12 | 57.71254 | -14.90683 | 37266 ft | 510 kts | 125° |
| 2026-05-08 18:12 | 57.67144 | -14.79925 | 37263 ft | 511 kts | 125° |
| 2026-05-08 18:13 | 57.63006 | -14.69145 | 37260 ft | 512 kts | 125° |
| 2026-05-08 18:13 | 57.58849 | -14.58364 | 37260 ft | 513 kts | 125° |
| 2026-05-08 18:14 | 57.54703 | -14.47656 | 37259 ft | 514 kts | 125° |
| 2026-05-08 18:14 | 57.50540 | -14.36955 | 37258 ft | 514 kts | 125° |
| 2026-05-08 18:15 | 57.46373 | -14.26265 | 37258 ft | 514 kts | 126° |
| 2026-05-08 18:15 | 57.42177 | -14.15542 | 37262 ft | 514 kts | 126° |
| 2026-05-08 18:16 | 57.37981 | -14.04889 | 37256 ft | 515 kts | 126° |
| 2026-05-08 18:16 | 57.33757 | -13.94214 | 37255 ft | 515 kts | 126° |
| 2026-05-08 18:17 | 57.29553 | -13.83637 | 37263 ft | 515 kts | 127° |
| 2026-05-08 18:17 | 57.25309 | -13.73010 | 37267 ft | 516 kts | 127° |
| 2026-05-08 18:18 | 57.21073 | -13.62447 | 37259 ft | 516 kts | 127° |
| 2026-05-08 18:18 | 57.16802 | -13.51840 | 37264 ft | 516 kts | 127° |
| 2026-05-08 18:19 | 57.12534 | -13.41279 | 37255 ft | 516 kts | 127° |
| 2026-05-08 18:19 | 57.08274 | -13.30771 | 37260 ft | 517 kts | 128° |
| 2026-05-08 18:20 | 57.03980 | -13.20191 | 37248 ft | 517 kts | 128° |
| 2026-05-08 18:20 | 56.99639 | -13.09760 | 37253 ft | 517 kts | 132° |
| 2026-05-08 18:21 | 56.94312 | -13.01185 | 37255 ft | 513 kts | 149° |
| 2026-05-08 18:21 | 56.88208 | -12.94490 | 37250 ft | 514 kts | 146° |
| 2026-05-08 18:22 | 56.82989 | -12.85687 | 37259 ft | 517 kts | 133° |
| 2026-05-08 18:22 | 56.78115 | -12.76157 | 37257 ft | 517 kts | 134° |
| 2026-05-08 18:23 | 56.73214 | -12.66643 | 37261 ft | 518 kts | 135° |
| 2026-05-08 18:23 | 56.68282 | -12.57225 | 37246 ft | 509 kts | 135° |
| 2026-05-08 18:24 | 56.63482 | -12.48120 | 37251 ft | 499 kts | 135° |
| 2026-05-08 18:24 | 56.58667 | -12.39068 | 37258 ft | 498 kts | 135° |
| 2026-05-08 18:25 | 56.53871 | -12.30103 | 37257 ft | 498 kts | 136° |
| 2026-05-08 18:25 | 56.49049 | -12.21118 | 37426 ft | 502 kts | 136° |
| 2026-05-08 18:26 | 56.46629 | -12.16629 | 37777 ft | 499 kts | 136° |
| 2026-05-08 18:26 | 56.44214 | -12.12162 | 38080 ft | 497 kts | 136° |
| 2026-05-08 18:26 | 56.41791 | -12.07693 | 38347 ft | 496 kts | 136° |
| 2026-05-08 18:26 | 56.39414 | -12.03317 | 38574 ft | 497 kts | 136° |
| 2026-05-08 18:27 | 56.36984 | -11.98852 | 38830 ft | 497 kts | 136° |
| 2026-05-08 18:27 | 56.35403 | -11.95951 | 38999 ft | 496 kts | 136° |
| 2026-05-08 18:27 | 56.32186 | -11.90062 | 39228 ft | 496 kts | 136° |
| 2026-05-08 18:27 | 56.29763 | -11.85635 | 39240 ft | 496 kts | 136° |
| 2026-05-08 18:28 | 56.24941 | -11.76849 | 39237 ft | 496 kts | 136° |
| 2026-05-08 18:28 | 56.20092 | -11.68047 | 39232 ft | 496 kts | 136° |
| 2026-05-08 18:29 | 56.15263 | -11.59314 | 39233 ft | 495 kts | 136° |
| 2026-05-08 18:29 | 56.10417 | -11.50586 | 39229 ft | 494 kts | 137° |
| 2026-05-08 18:30 | 56.05571 | -11.41893 | 39229 ft | 494 kts | 137° |
| 2026-05-08 18:30 | 56.00767 | -11.33305 | 39227 ft | 493 kts | 138° |
| 2026-05-08 18:31 | 55.95913 | -11.24631 | 39227 ft | 493 kts | 138° |
| 2026-05-08 18:31 | 55.91096 | -11.16067 | 39224 ft | 493 kts | 138° |
| 2026-05-08 18:32 | 55.86217 | -11.07470 | 39229 ft | 492 kts | 138° |
| 2026-05-08 18:32 | 55.81358 | -10.98956 | 39227 ft | 492 kts | 138° |
| 2026-05-08 18:33 | 55.76502 | -10.90452 | 39224 ft | 493 kts | 138° |
| 2026-05-08 18:33 | 55.71646 | -10.81963 | 39229 ft | 492 kts | 138° |
| 2026-05-08 18:34 | 55.66786 | -10.73501 | 39222 ft | 491 kts | 138° |
| 2026-05-08 18:34 | 55.61932 | -10.65078 | 39219 ft | 490 kts | 138° |
| 2026-05-08 18:35 | 55.57080 | -10.56687 | 39211 ft | 490 kts | 138° |
| 2026-05-08 18:35 | 55.52202 | -10.48281 | 39211 ft | 490 kts | 138° |
| 2026-05-08 18:36 | 55.47342 | -10.39932 | 39207 ft | 489 kts | 138° |
| 2026-05-08 18:36 | 55.42502 | -10.31640 | 39203 ft | 488 kts | 139° |
| 2026-05-08 18:37 | 55.37634 | -10.23305 | 39199 ft | 489 kts | 139° |
| 2026-05-08 18:37 | 55.32766 | -10.15013 | 39199 ft | 488 kts | 139° |
| 2026-05-08 18:38 | 55.27916 | -10.06797 | 39196 ft | 487 kts | 139° |
| 2026-05-08 18:38 | 55.23177 | -9.98434 | 39192 ft | 488 kts | 135° |
| 2026-05-08 18:39 | 55.18785 | -9.89387 | 39202 ft | 489 kts | 133° |
| 2026-05-08 18:39 | 55.14438 | -9.80339 | 39201 ft | 488 kts | 133° |
| 2026-05-08 18:40 | 55.10107 | -9.71342 | 39197 ft | 487 kts | 133° |
| 2026-05-08 18:40 | 55.05745 | -9.62317 | 39188 ft | 487 kts | 133° |
| 2026-05-08 18:41 | 55.01389 | -9.53337 | 39192 ft | 487 kts | 133° |
| 2026-05-08 18:41 | 54.97040 | -9.44402 | 39201 ft | 486 kts | 133° |
| 2026-05-08 18:42 | 54.92673 | -9.35457 | 39193 ft | 485 kts | 133° |
| 2026-05-08 18:42 | 54.88308 | -9.26537 | 39183 ft | 484 kts | 134° |
| 2026-05-08 18:43 | 54.83935 | -9.17685 | 39179 ft | 484 kts | 134° |
| 2026-05-08 18:43 | 54.79552 | -9.08831 | 39174 ft | 485 kts | 134° |
| 2026-05-08 18:44 | 54.75175 | -9.00001 | 39175 ft | 483 kts | 134° |
| 2026-05-08 18:44 | 54.70808 | -8.91222 | 39169 ft | 484 kts | 134° |
| 2026-05-08 18:45 | 54.66458 | -8.82503 | 39170 ft | 484 kts | 134° |
| 2026-05-08 18:45 | 54.62064 | -8.73725 | 39162 ft | 485 kts | 134° |
| 2026-05-08 18:46 | 54.57672 | -8.64979 | 39160 ft | 485 kts | 134° |
| 2026-05-08 18:46 | 54.53271 | -8.56231 | 39155 ft | 484 kts | 134° |
| 2026-05-08 18:47 | 54.48873 | -8.47529 | 39146 ft | 484 kts | 134° |
| 2026-05-08 18:47 | 54.44513 | -8.38730 | 39146 ft | 486 kts | 131° |
| 2026-05-08 18:48 | 54.40428 | -8.29473 | 39144 ft | 486 kts | 131° |
| 2026-05-08 18:48 | 54.36386 | -8.20276 | 39135 ft | 486 kts | 131° |
| 2026-05-08 18:49 | 54.32297 | -8.11007 | 39132 ft | 487 kts | 131° |
| 2026-05-08 18:49 | 54.28223 | -8.01808 | 39122 ft | 487 kts | 131° |
| 2026-05-08 18:50 | 54.24127 | -7.92596 | 39117 ft | 487 kts | 131° |
| 2026-05-08 18:50 | 54.20029 | -7.83409 | 39128 ft | 487 kts | 131° |
| 2026-05-08 18:51 | 54.15943 | -7.74290 | 39129 ft | 487 kts | 131° |
| 2026-05-08 18:51 | 54.11833 | -7.65145 | 39137 ft | 486 kts | 131° |
| 2026-05-08 18:52 | 54.07727 | -7.56050 | 39131 ft | 486 kts | 131° |
| 2026-05-08 18:52 | 54.03594 | -7.46921 | 39144 ft | 486 kts | 131° |
| 2026-05-08 18:53 | 53.99475 | -7.37858 | 39142 ft | 486 kts | 131° |
| 2026-05-08 18:53 | 53.95354 | -7.28802 | 39145 ft | 486 kts | 132° |
| 2026-05-08 18:54 | 53.91239 | -7.19781 | 39118 ft | 485 kts | 132° |
| 2026-05-08 18:54 | 53.87088 | -7.10762 | 39125 ft | 484 kts | 133° |
| 2026-05-08 18:55 | 53.80845 | -6.97289 | 39124 ft | 484 kts | 132° |
| 2026-05-08 18:56 | 53.76709 | -6.88353 | 39109 ft | 484 kts | 132° |
| 2026-05-08 18:56 | 53.72567 | -6.79425 | 39107 ft | 484 kts | 132° |
| 2026-05-08 18:57 | 53.68413 | -6.70516 | 39107 ft | 484 kts | 132° |
| 2026-05-08 18:57 | 53.64269 | -6.61586 | 39094 ft | 485 kts | 132° |
| 2026-05-08 18:58 | 53.60119 | -6.52638 | 39102 ft | 484 kts | 132° |
| 2026-05-08 18:58 | 53.55967 | -6.43777 | 39103 ft | 483 kts | 134° |
| 2026-05-08 18:59 | 53.51402 | -6.35662 | 39111 ft | 478 kts | 141° |
| 2026-05-08 18:59 | 53.46285 | -6.28636 | 39120 ft | 472 kts | 149° |
| 2026-05-08 19:00 | 53.40724 | -6.22817 | 39103 ft | 467 kts | 156° |
| 2026-05-08 19:00 | 53.35001 | -6.17779 | 39098 ft | 466 kts | 156° |
| 2026-05-08 19:01 | 53.29327 | -6.12730 | 39091 ft | 467 kts | 155° |
| 2026-05-08 19:01 | 53.23782 | -6.07000 | 39099 ft | 471 kts | 149° |
| 2026-05-08 19:02 | 53.18456 | -6.00669 | 39076 ft | 471 kts | 149° |
| 2026-05-08 19:02 | 53.13142 | -5.94384 | 39112 ft | 472 kts | 149° |
| 2026-05-08 19:03 | 53.07813 | -5.88095 | 39095 ft | 471 kts | 149° |
| 2026-05-08 19:03 | 53.02460 | -5.81792 | 39105 ft | 471 kts | 149° |
| 2026-05-08 19:04 | 52.97160 | -5.75568 | 39083 ft | 471 kts | 149° |
| 2026-05-08 19:04 | 52.91826 | -5.69317 | 39081 ft | 471 kts | 149° |
| 2026-05-08 19:05 | 52.86492 | -5.63105 | 39086 ft | 470 kts | 149° |
| 2026-05-08 19:05 | 52.81207 | -5.56685 | 39068 ft | 472 kts | 144° |
| 2026-05-08 19:06 | 52.76468 | -5.49195 | 39072 ft | 478 kts | 135° |
| 2026-05-08 19:06 | 52.72407 | -5.40525 | 39077 ft | 484 kts | 126° |
| 2026-05-08 19:07 | 52.69086 | -5.30825 | 39067 ft | 487 kts | 121° |
| 2026-05-08 19:07 | 52.66014 | -5.20918 | 39049 ft | 486 kts | 121° |
| 2026-05-08 19:08 | 52.62936 | -5.11060 | 39044 ft | 486 kts | 121° |
| 2026-05-08 19:08 | 52.59842 | -5.01247 | 39048 ft | 486 kts | 121° |
| 2026-05-08 19:09 | 52.56726 | -4.91418 | 39051 ft | 485 kts | 121° |
| 2026-05-08 19:09 | 52.53616 | -4.81649 | 39053 ft | 486 kts | 121° |
| 2026-05-08 19:10 | 52.50479 | -4.71843 | 39038 ft | 486 kts | 121° |
| 2026-05-08 19:10 | 52.47335 | -4.62055 | 39050 ft | 487 kts | 121° |
| 2026-05-08 19:11 | 52.44174 | -4.52245 | 39045 ft | 486 kts | 121° |
| 2026-05-08 19:11 | 52.41015 | -4.42486 | 39041 ft | 486 kts | 121° |
| 2026-05-08 19:12 | 52.37849 | -4.32747 | 39043 ft | 486 kts | 121° |
| 2026-05-08 19:12 | 52.34701 | -4.23064 | 39030 ft | 486 kts | 121° |
| 2026-05-08 19:13 | 52.31585 | -4.13530 | 39043 ft | 485 kts | 121° |
| 2026-05-08 19:13 | 52.28390 | -4.03802 | 39022 ft | 485 kts | 121° |
| 2026-05-08 19:14 | 52.25205 | -3.94152 | 39040 ft | 485 kts | 121° |
| 2026-05-08 19:14 | 52.22006 | -3.84500 | 39022 ft | 486 kts | 121° |
| 2026-05-08 19:15 | 52.18780 | -3.74804 | 39037 ft | 485 kts | 121° |
| 2026-05-08 19:15 | 52.15590 | -3.65248 | 39026 ft | 485 kts | 121° |
| 2026-05-08 19:16 | 52.12366 | -3.55636 | 39024 ft | 485 kts | 121° |
| 2026-05-08 19:16 | 52.09133 | -3.46023 | 39028 ft | 486 kts | 121° |
| 2026-05-08 19:17 | 52.05898 | -3.36453 | 39048 ft | 485 kts | 121° |
| 2026-05-08 19:17 | 52.02653 | -3.26862 | 39025 ft | 484 kts | 121° |
| 2026-05-08 19:18 | 51.99616 | -3.17918 | 39040 ft | 485 kts | 121° |
| 2026-05-08 19:18 | 51.96321 | -3.08260 | 39029 ft | 484 kts | 121° |
| 2026-05-08 19:19 | 51.93173 | -2.99077 | 39034 ft | 484 kts | 121° |
| 2026-05-08 19:19 | 51.89915 | -2.89610 | 39031 ft | 484 kts | 121° |
| 2026-05-08 19:20 | 51.86617 | -2.80141 | 39026 ft | 484 kts | 121° |
| 2026-05-08 19:20 | 51.83310 | -2.70666 | 39028 ft | 484 kts | 121° |
| 2026-05-08 19:21 | 51.79998 | -2.61172 | 39029 ft | 484 kts | 121° |
| 2026-05-08 19:21 | 51.76704 | -2.51748 | 39031 ft | 484 kts | 121° |
| 2026-05-08 19:22 | 51.73395 | -2.42311 | 39038 ft | 485 kts | 121° |
| 2026-05-08 19:22 | 51.70078 | -2.32884 | 39036 ft | 484 kts | 122° |
| 2026-05-08 19:23 | 51.66808 | -2.23596 | 39042 ft | 485 kts | 122° |
| 2026-05-08 19:23 | 51.63422 | -2.14024 | 39042 ft | 484 kts | 122° |
| 2026-05-08 19:24 | 51.60122 | -2.04745 | 39048 ft | 484 kts | 122° |
| 2026-05-08 19:24 | 51.56782 | -1.95380 | 39047 ft | 485 kts | 122° |
| 2026-05-08 19:25 | 51.53439 | -1.86034 | 39044 ft | 484 kts | 122° |
| 2026-05-08 19:25 | 51.50072 | -1.76658 | 39043 ft | 484 kts | 122° |
| 2026-05-08 19:26 | 51.46753 | -1.67269 | 39044 ft | 485 kts | 119° |
| 2026-05-08 19:26 | 51.43815 | -1.57507 | 39044 ft | 486 kts | 116° |
| 2026-05-08 19:27 | 51.40962 | -1.47747 | 39043 ft | 487 kts | 116° |
| 2026-05-08 19:27 | 51.38087 | -1.37944 | 39042 ft | 487 kts | 116° |
| 2026-05-08 19:28 | 51.35200 | -1.28182 | 39041 ft | 487 kts | 118° |
| 2026-05-08 19:28 | 51.31961 | -1.18878 | 39043 ft | 486 kts | 124° |
| 2026-05-08 19:29 | 51.28014 | -1.10156 | 39047 ft | 484 kts | 129° |
| 2026-05-08 19:29 | 51.23942 | -1.01587 | 39051 ft | 484 kts | 129° |
| 2026-05-08 19:30 | 51.19874 | -0.93028 | 39042 ft | 484 kts | 129° |
| 2026-05-08 19:30 | 51.15818 | -0.84486 | 39045 ft | 485 kts | 129° |
| 2026-05-08 19:31 | 51.11743 | -0.75914 | 38646 ft | 481 kts | 128° |
| 2026-05-08 19:31 | 51.09740 | -0.71709 | 38058 ft | 478 kts | 129° |
| 2026-05-08 19:31 | 51.07758 | -0.67563 | 37373 ft | 477 kts | 128° |
| 2026-05-08 19:31 | 51.05779 | -0.63332 | 36641 ft | 478 kts | 126° |
| 2026-05-08 19:32 | 51.03917 | -0.58928 | 35999 ft | 480 kts | 123° |
| 2026-05-08 19:32 | 51.02159 | -0.54425 | 35316 ft | 483 kts | 122° |
| 2026-05-08 19:32 | 51.00396 | -0.49880 | 34628 ft | 486 kts | 122° |
| 2026-05-08 19:32 | 50.98635 | -0.45344 | 33868 ft | 488 kts | 122° |
| 2026-05-08 19:33 | 50.96825 | -0.40686 | 33122 ft | 490 kts | 122° |
| 2026-05-08 19:33 | 50.95050 | -0.36130 | 32450 ft | 489 kts | 122° |
| 2026-05-08 19:33 | 50.93256 | -0.31531 | 31757 ft | 489 kts | 123° |
| 2026-05-08 19:33 | 50.91478 | -0.26969 | 31027 ft | 490 kts | 123° |
| 2026-05-08 19:34 | 50.89691 | -0.22398 | 30259 ft | 491 kts | 123° |
| 2026-05-08 19:34 | 50.87881 | -0.17811 | 29529 ft | 491 kts | 123° |
| 2026-05-08 19:34 | 50.86061 | -0.13217 | 29145 ft | 492 kts | 123° |
| 2026-05-08 19:35 | 50.82438 | -0.04058 | 29065 ft | 494 kts | 122° |
| 2026-05-08 19:35 | 50.78612 | 0.04967 | 29060 ft | 494 kts | 127° |
| 2026-05-08 19:36 | 50.74209 | 0.13238 | 29062 ft | 493 kts | 134° |
| 2026-05-08 19:36 | 50.69224 | 0.20719 | 29063 ft | 492 kts | 140° |
| 2026-05-08 19:37 | 50.63938 | 0.27524 | 29064 ft | 493 kts | 141° |
| 2026-05-08 19:37 | 50.58672 | 0.34312 | 29060 ft | 493 kts | 141° |
| 2026-05-08 19:38 | 50.53351 | 0.41086 | 29061 ft | 493 kts | 142° |
| 2026-05-08 19:38 | 50.48031 | 0.47820 | 29060 ft | 494 kts | 142° |
| 2026-05-08 19:38 | 50.45364 | 0.51188 | 28748 ft | 495 kts | 142° |
| 2026-05-08 19:39 | 50.42699 | 0.54546 | 28073 ft | 494 kts | 141° |
| 2026-05-08 19:39 | 50.40023 | 0.57922 | 27521 ft | 489 kts | 141° |
| 2026-05-08 19:39 | 50.37394 | 0.61232 | 26958 ft | 485 kts | 141° |
| 2026-05-08 19:39 | 50.34857 | 0.64422 | 26478 ft | 479 kts | 141° |
| 2026-05-08 19:40 | 50.32276 | 0.67660 | 26023 ft | 473 kts | 142° |
| 2026-05-08 19:40 | 50.29717 | 0.70876 | 25592 ft | 467 kts | 142° |
| 2026-05-08 19:40 | 50.26682 | 0.74687 | 25072 ft | 460 kts | 142° |
| 2026-05-08 19:40 | 50.24193 | 0.77806 | 24651 ft | 454 kts | 141° |
| 2026-05-08 19:41 | 50.21759 | 0.80848 | 24219 ft | 450 kts | 141° |
| 2026-05-08 19:41 | 50.19324 | 0.83884 | 23786 ft | 446 kts | 141° |
| 2026-05-08 19:41 | 50.16924 | 0.86870 | 23359 ft | 442 kts | 141° |
| 2026-05-08 19:41 | 50.14555 | 0.89815 | 22943 ft | 438 kts | 141° |
| 2026-05-08 19:42 | 50.12181 | 0.92762 | 22538 ft | 434 kts | 141° |
| 2026-05-08 19:42 | 50.09826 | 0.95682 | 22130 ft | 430 kts | 141° |
| 2026-05-08 19:42 | 50.07471 | 0.98484 | 21738 ft | 426 kts | 144° |
| 2026-05-08 19:42 | 50.05032 | 1.00979 | 21355 ft | 422 kts | 148° |
| 2026-05-08 19:43 | 50.02457 | 1.03214 | 20958 ft | 418 kts | 153° |
| 2026-05-08 19:43 | 49.99873 | 1.05175 | 20581 ft | 414 kts | 154° |
| 2026-05-08 19:43 | 49.97304 | 1.07098 | 20205 ft | 410 kts | 154° |
| 2026-05-08 19:43 | 49.94749 | 1.09010 | 19834 ft | 405 kts | 154° |
| 2026-05-08 19:44 | 49.92226 | 1.10895 | 19462 ft | 401 kts | 154° |
| 2026-05-08 19:44 | 49.89709 | 1.12778 | 19076 ft | 398 kts | 153° |
| 2026-05-08 19:44 | 49.87233 | 1.14625 | 18685 ft | 394 kts | 153° |
| 2026-05-08 19:44 | 49.84764 | 1.16464 | 18297 ft | 391 kts | 153° |
| 2026-05-08 19:45 | 49.82319 | 1.18288 | 17899 ft | 388 kts | 153° |
| 2026-05-08 19:45 | 49.79949 | 1.20059 | 17498 ft | 385 kts | 154° |
| 2026-05-08 19:45 | 49.77541 | 1.21857 | 17082 ft | 383 kts | 154° |
| 2026-05-08 19:45 | 49.75148 | 1.23643 | 16666 ft | 381 kts | 154° |
| 2026-05-08 19:46 | 49.72781 | 1.25407 | 16253 ft | 379 kts | 154° |
| 2026-05-08 19:46 | 49.70419 | 1.27164 | 15842 ft | 377 kts | 154° |
| 2026-05-08 19:46 | 49.65734 | 1.30645 | 15021 ft | 373 kts | 154° |
| 2026-05-08 19:47 | 49.63399 | 1.32378 | 14614 ft | 371 kts | 154° |
| 2026-05-08 19:47 | 49.61064 | 1.34109 | 14200 ft | 369 kts | 154° |
| 2026-05-08 19:47 | 49.58758 | 1.35816 | 13792 ft | 368 kts | 154° |
| 2026-05-08 19:47 | 49.56469 | 1.37510 | 13386 ft | 366 kts | 154° |
| 2026-05-08 19:48 | 49.54175 | 1.39204 | 12976 ft | 364 kts | 154° |
| 2026-05-08 19:48 | 49.51903 | 1.40882 | 12581 ft | 362 kts | 154° |
| 2026-05-08 19:48 | 49.49641 | 1.42552 | 12186 ft | 361 kts | 154° |
| 2026-05-08 19:48 | 49.47308 | 1.44264 | 11788 ft | 374 kts | 154° |
| 2026-05-08 19:49 | 49.44984 | 1.46005 | 11385 ft | 374 kts | 150° |
| 2026-05-08 19:49 | 49.42841 | 1.48249 | 10991 ft | 368 kts | 142° |
| 2026-05-08 19:49 | 49.40838 | 1.50600 | 10664 ft | 360 kts | 141° |
| 2026-05-08 19:49 | 49.38865 | 1.52943 | 10356 ft | 352 kts | 141° |
| 2026-05-08 19:50 | 49.36969 | 1.55186 | 10090 ft | 344 kts | 141° |
| 2026-05-08 19:50 | 49.35092 | 1.57397 | 10064 ft | 329 kts | 141° |
| 2026-05-08 19:50 | 49.33333 | 1.59466 | 10053 ft | 314 kts | 141° |
| 2026-05-08 19:50 | 49.31622 | 1.61477 | 9977 ft | 301 kts | 141° |
| 2026-05-08 19:51 | 49.29993 | 1.63390 | 9854 ft | 291 kts | 141° |
| 2026-05-08 19:51 | 49.28391 | 1.65264 | 9658 ft | 285 kts | 142° |
| 2026-05-08 19:51 | 49.26826 | 1.67101 | 9292 ft | 284 kts | 142° |
| 2026-05-08 19:51 | 49.25263 | 1.68949 | 8950 ft | 283 kts | 141° |
| 2026-05-08 19:52 | 49.23711 | 1.70777 | 8627 ft | 281 kts | 141° |
| 2026-05-08 19:52 | 49.22155 | 1.72599 | 8301 ft | 279 kts | 141° |
| 2026-05-08 19:52 | 49.20625 | 1.74391 | 7974 ft | 277 kts | 141° |
| 2026-05-08 19:52 | 49.19093 | 1.76178 | 7651 ft | 275 kts | 141° |
| 2026-05-08 19:53 | 49.17594 | 1.77924 | 7334 ft | 273 kts | 141° |
| 2026-05-08 19:53 | 49.16086 | 1.79680 | 7012 ft | 271 kts | 141° |
| 2026-05-08 19:53 | 49.14585 | 1.81425 | 6694 ft | 270 kts | 141° |
| 2026-05-08 19:53 | 49.13078 | 1.83181 | 6369 ft | 268 kts | 141° |
| 2026-05-08 19:54 | 49.11607 | 1.84895 | 6167 ft | 261 kts | 141° |
| 2026-05-08 19:54 | 49.10190 | 1.86540 | 6015 ft | 253 kts | 141° |
| 2026-05-08 19:54 | 49.08810 | 1.88136 | 5814 ft | 243 kts | 141° |
| 2026-05-08 19:54 | 49.07497 | 1.89646 | 5591 ft | 234 kts | 141° |
| 2026-05-08 19:55 | 49.06188 | 1.91141 | 5371 ft | 231 kts | 141° |
| 2026-05-08 19:55 | 49.04893 | 1.92609 | 5092 ft | 231 kts | 141° |
| 2026-05-08 19:55 | 49.03627 | 1.94032 | 4963 ft | 230 kts | 141° |
| 2026-05-08 19:55 | 49.02324 | 1.95489 | 4958 ft | 231 kts | 141° |
| 2026-05-08 19:56 | 49.01034 | 1.96933 | 4959 ft | 231 kts | 141° |
| 2026-05-08 19:56 | 48.99774 | 1.98347 | 4958 ft | 231 kts | 141° |
| 2026-05-08 19:56 | 48.98484 | 1.99801 | 4962 ft | 230 kts | 141° |
| 2026-05-08 19:56 | 48.97203 | 2.01248 | 4963 ft | 230 kts | 141° |
| 2026-05-08 19:57 | 48.95921 | 2.02696 | 4958 ft | 230 kts | 141° |
| 2026-05-08 19:57 | 48.94646 | 2.04136 | 4956 ft | 230 kts | 141° |
| 2026-05-08 19:57 | 48.93348 | 2.05600 | 4954 ft | 230 kts | 141° |
| 2026-05-08 19:57 | 48.92078 | 2.07028 | 4950 ft | 231 kts | 141° |
| 2026-05-08 19:58 | 48.90707 | 2.08336 | 4937 ft | 233 kts | 160° |
| 2026-05-08 19:58 | 48.89131 | 2.08517 | 4941 ft | 235 kts | 192° |
| 2026-05-08 19:58 | 48.87707 | 2.07411 | 4951 ft | 238 kts | 224° |
| 2026-05-08 19:58 | 48.86844 | 2.05302 | 4964 ft | 239 kts | 256° |
| 2026-05-08 19:59 | 48.86639 | 2.02807 | 4990 ft | 241 kts | 269° |
| 2026-05-08 19:59 | 48.86619 | 2.00218 | 4979 ft | 241 kts | 271° |
| 2026-05-08 19:59 | 48.86636 | 1.97670 | 4982 ft | 241 kts | 271° |
| 2026-05-08 19:59 | 48.86660 | 1.95155 | 4976 ft | 241 kts | 271° |
| 2026-05-08 20:00 | 48.86687 | 1.92600 | 4971 ft | 241 kts | 271° |
| 2026-05-08 20:00 | 48.86718 | 1.90021 | 4971 ft | 241 kts | 271° |
| 2026-05-08 20:00 | 48.86760 | 1.87471 | 4967 ft | 241 kts | 276° |
| 2026-05-08 20:00 | 48.87262 | 1.85107 | 4944 ft | 238 kts | 307° |
| 2026-05-08 20:01 | 48.88501 | 1.83495 | 4957 ft | 233 kts | 340° |
| 2026-05-08 20:01 | 48.90065 | 1.83153 | 4957 ft | 228 kts | 12° |
| 2026-05-08 20:01 | 48.91475 | 1.84156 | 4952 ft | 224 kts | 46° |
| 2026-05-08 20:01 | 48.92314 | 1.86106 | 4971 ft | 224 kts | 67° |
| 2026-05-08 20:02 | 48.92872 | 1.88327 | 4966 ft | 226 kts | 71° |
| 2026-05-08 20:02 | 48.93375 | 1.90599 | 4965 ft | 226 kts | 72° |
| 2026-05-08 20:02 | 48.93858 | 1.92861 | 4962 ft | 227 kts | 72° |
| 2026-05-08 20:02 | 48.94347 | 1.95169 | 4960 ft | 227 kts | 72° |
| 2026-05-08 20:03 | 48.94824 | 1.97421 | 4967 ft | 227 kts | 72° |
| 2026-05-08 20:03 | 48.95311 | 1.99701 | 4970 ft | 226 kts | 72° |
| 2026-05-08 20:03 | 48.95794 | 2.01948 | 4962 ft | 226 kts | 72° |
| 2026-05-08 20:03 | 48.96288 | 2.04230 | 4960 ft | 226 kts | 72° |
| 2026-05-08 20:04 | 48.96779 | 2.06496 | 4954 ft | 227 kts | 72° |
| 2026-05-08 20:04 | 48.97118 | 2.08820 | 4922 ft | 226 kts | 89° |
| 2026-05-08 20:04 | 48.97126 | 2.11226 | 4956 ft | 227 kts | 89° |
| 2026-05-08 20:04 | 48.97150 | 2.13630 | 4961 ft | 227 kts | 88° |
| 2026-05-08 20:05 | 48.97210 | 2.16035 | 4964 ft | 226 kts | 86° |
| 2026-05-08 20:05 | 48.97299 | 2.18388 | 4955 ft | 218 kts | 85° |
| 2026-05-08 20:05 | 48.97403 | 2.20644 | 4848 ft | 216 kts | 85° |
| 2026-05-08 20:05 | 48.97519 | 2.22935 | 4600 ft | 215 kts | 84° |
| 2026-05-08 20:06 | 48.97638 | 2.25185 | 4329 ft | 209 kts | 84° |
| 2026-05-08 20:06 | 48.97752 | 2.27323 | 4042 ft | 199 kts | 84° |
| 2026-05-08 20:06 | 48.97861 | 2.29359 | 3803 ft | 191 kts | 84° |
| 2026-05-08 20:06 | 48.97967 | 2.31356 | 3544 ft | 186 kts | 84° |
| 2026-05-08 20:07 | 48.98069 | 2.33288 | 3296 ft | 180 kts | 84° |
| 2026-05-08 20:07 | 48.98167 | 2.35154 | 3064 ft | 176 kts | 84° |
| 2026-05-08 20:07 | 48.98264 | 2.36997 | 2833 ft | 175 kts | 84° |
| 2026-05-08 20:07 | 48.98362 | 2.38870 | 2602 ft | 175 kts | 84° |
| 2026-05-08 20:08 | 48.98457 | 2.40688 | 2378 ft | 175 kts | 83° |
| 2026-05-08 20:08 | 48.98555 | 2.42532 | 2150 ft | 173 kts | 84° |
| 2026-05-08 20:08 | 48.98651 | 2.44345 | 1919 ft | 169 kts | 86° |
| 2026-05-08 20:08 | 48.98735 | 2.46077 | 1686 ft | 157 kts | 84° |
| 2026-05-08 20:09 | 48.98798 | 2.47709 | 1499 ft | 155 kts | 82° |
| 2026-05-08 20:09 | 48.98920 | 2.49339 | 1334 ft | 155 kts | 81° |
| 2026-05-08 20:09 | 48.99000 | 2.50972 | 1109 ft | 154 kts | 84° |
| 2026-05-08 20:09 | 48.99072 | 2.52582 | 876 ft | 152 kts | 83° |
| 2026-05-08 20:10 | 48.99169 | 2.54195 | 689 ft | 153 kts | 84° |
| 2026-05-08 20:10 | 48.99246 | 2.55776 | 489 ft | 150 kts | 82° |
| 2026-05-08 20:10 | 48.99332 | 2.57327 | 349 ft | 137 kts | 85° |
| 2026-05-08 20:10 | 48.99394 | 2.58469 | 336 ft | 80 kts | 85° |
| 2026-05-08 20:11 | 48.99428 | 2.59054 | 329 ft | 35 kts | 81° |
| 2026-05-08 20:11 | 48.99497 | 2.59356 | 327 ft | 21 kts | 65° |
| 2026-05-08 20:11 | 48.99558 | 2.59556 | 327 ft | 19 kts | 65° |
| 2026-05-08 20:11 | 48.99607 | 2.59658 | 328 ft | 9 kts | 26° |
| 2026-05-08 20:12 | 48.99681 | 2.59686 | 329 ft | 12 kts | 2° |
| 2026-05-08 20:12 | 48.99770 | 2.59679 | 330 ft | 13 kts | 355° |
| 2026-05-08 20:12 | 48.99871 | 2.59665 | 332 ft | 14 kts | 354° |
| 2026-05-08 20:12 | 48.99948 | 2.59656 | 333 ft | 11 kts | 355° |
| 2026-05-08 20:13 | 49.00020 | 2.59647 | 335 ft | 7 kts | 350° |
| 2026-05-08 20:13 | 49.00064 | 2.59605 | 336 ft | 8 kts | 298° |
| 2026-05-08 20:13 | 49.00073 | 2.59520 | 336 ft | 9 kts | 272° |
| 2026-05-08 20:13 | 49.00073 | 2.59420 | 336 ft | 10 kts | 263° |
| 2026-05-08 20:14 | 49.00064 | 2.59301 | 336 ft | 13 kts | 263° |
| 2026-05-08 20:14 | 49.00055 | 2.59144 | 337 ft | 13 kts | 265° |
| 2026-05-08 20:14 | 49.00050 | 2.59037 | 337 ft | 9 kts | 265° |
| 2026-05-08 20:14 | 49.00050 | 2.58975 | 337 ft | 6 kts | 281° |
| 2026-05-08 20:15 | 49.00061 | 2.58944 | 338 ft | 0 kts | 308° |
| 2026-05-08 20:15 | 49.00065 | 2.58936 | 338 ft | 2 kts | 312° |
| 2026-05-08 20:16 | 49.00092 | 2.58911 | 338 ft | 6 kts | 339° |
| 2026-05-08 20:16 | 49.00145 | 2.58893 | 339 ft | 9 kts | 351° |
| 2026-05-08 20:16 | 49.00203 | 2.58883 | 340 ft | 7 kts | 354° |
| 2026-05-08 20:16 | 49.00231 | 2.58891 | 341 ft | 0 kts | 48° |
| 2026-05-08 20:17 | 49.00241 | 2.58908 | 341 ft | 3 kts | 55° |
| 2026-05-08 20:17 | 49.00254 | 2.58948 | 341 ft | 3 kts | 68° |
| 2026-05-08 20:17 | 49.00260 | 2.58975 | 341 ft | 0 kts | 71° |
| 2026-05-08 20:17 | 49.00261 | 2.58983 | 341 ft | 1 kts | 80° |
| 2026-05-08 20:18 | 49.00262 | 2.58994 | 341 ft | 0 kts | 82° |